2016 Cux-Wetter.de -Die Nutzung der Wetterdaten nur mit ausdrcklicher Genehmigung
Wetterdaten: Mittwoch, 27.12.2017
Datum Zeit Temp. A. Feuchte A. Luftdruck Regen Wind Richtung Richtung Sonnenschein Solar Taupunkt Windchill Windben
27.12.2017 00:00 4,3 C 89 % 992,7 hPa 0,0 l/m 9,3 km/h (2 Bft) S-SW 193 0 min 0 W/m 2,7 C 1,8 C 16,1 km/h (3 Bft)
27.12.2017 00:03 4,2 C 89 % 992,6 hPa 0,0 l/m 9,8 km/h (2 Bft) S 170 0 min 0 W/m 2,6 C 1,3 C 17,7 km/h (3 Bft)
27.12.2017 00:06 4,2 C 89 % 992,6 hPa 0,0 l/m 9,1 km/h (2 Bft) S 178 0 min 0 W/m 2,6 C 1,9 C 16,1 km/h (3 Bft)
27.12.2017 00:09 4,1 C 89 % 992,6 hPa 0,0 l/m 10,1 km/h (2 Bft) S 169 0 min 0 W/m 2,5 C 1,0 C 16,1 km/h (3 Bft)
27.12.2017 00:12 4,1 C 89 % 992,6 hPa 0,0 l/m 8,4 km/h (2 Bft) SW 223 0 min 0 W/m 2,5 C 2,3 C 16,1 km/h (3 Bft)
27.12.2017 00:15 4,0 C 89 % 992,7 hPa 0,0 l/m 10,6 km/h (2 Bft) SW 225 0 min 0 W/m 2,4 C 0,5 C 17,7 km/h (3 Bft)
27.12.2017 00:18 3,9 C 90 % 992,7 hPa 0,0 l/m 10,7 km/h (2 Bft) S 181 0 min 0 W/m 2,4 C 0,4 C 17,7 km/h (3 Bft)
27.12.2017 00:21 3,9 C 90 % 992,6 hPa 0,0 l/m 10,0 km/h (2 Bft) S-SO 163 0 min 0 W/m 2,4 C 0,9 C 16,1 km/h (3 Bft)
27.12.2017 00:24 3,9 C 90 % 992,6 hPa 0,0 l/m 10,8 km/h (2 Bft) S 175 0 min 0 W/m 2,4 C 0,3 C 16,1 km/h (3 Bft)
27.12.2017 00:27 3,8 C 90 % 992,5 hPa 0,0 l/m 10,0 km/h (2 Bft) S 174 0 min 0 W/m 2,3 C 0,7 C 22,5 km/h (4 Bft)
27.12.2017 00:30 3,8 C 90 % 992,5 hPa 0,0 l/m 9,6 km/h (2 Bft) S 182 0 min 0 W/m 2,3 C 1,0 C 16,1 km/h (3 Bft)
27.12.2017 00:33 3,7 C 90 % 992,5 hPa 0,0 l/m 11,2 km/h (2 Bft) S 177 0 min 0 W/m 2,2 C -0,2 C 17,7 km/h (3 Bft)
27.12.2017 00:36 3,7 C 90 % 992,5 hPa 0,0 l/m 10,2 km/h (2 Bft) S 169 0 min 0 W/m 2,2 C 0,5 C 17,7 km/h (3 Bft)
27.12.2017 00:39 3,7 C 90 % 992,5 hPa 0,0 l/m 11,0 km/h (2 Bft) S-SW 203 0 min 0 W/m 2,2 C -0,1 C 20,9 km/h (4 Bft)
27.12.2017 00:42 3,6 C 90 % 992,4 hPa 0,0 l/m 10,5 km/h (2 Bft) S 169 0 min 0 W/m 2,1 C 0,2 C 19,3 km/h (3 Bft)
27.12.2017 00:45 3,6 C 90 % 992,4 hPa 0,0 l/m 9,8 km/h (2 Bft) S 173 0 min 0 W/m 2,1 C 0,7 C 16,1 km/h (3 Bft)
27.12.2017 00:48 3,6 C 90 % 992,4 hPa 0,0 l/m 10,6 km/h (2 Bft) S-SO 165 0 min 0 W/m 2,1 C 0,1 C 17,7 km/h (3 Bft)
27.12.2017 00:51 3,6 C 90 % 992,4 hPa 0,0 l/m 10,0 km/h (2 Bft) S 181 0 min 0 W/m 2,1 C 0,5 C 17,7 km/h (3 Bft)
27.12.2017 00:54 3,6 C 90 % 992,4 hPa 0,0 l/m 10,7 km/h (2 Bft) S-SW 202 0 min 0 W/m 2,1 C 0,0 C 17,7 km/h (3 Bft)
27.12.2017 00:57 3,6 C 91 % 992,4 hPa 0,0 l/m 10,6 km/h (2 Bft) S-SW 207 0 min 0 W/m 2,3 C 0,1 C 19,3 km/h (3 Bft)
27.12.2017 01:00 3,6 C 91 % 992,4 hPa 0,0 l/m 9,9 km/h (2 Bft) S 170 0 min 0 W/m 2,3 C 0,6 C 20,9 km/h (4 Bft)
27.12.2017 01:03 3,6 C 91 % 992,4 hPa 0,0 l/m 9,4 km/h (2 Bft) S 174 0 min 0 W/m 2,3 C 1,0 C 14,5 km/h (3 Bft)
27.12.2017 01:06 3,6 C 91 % 992,3 hPa 0,0 l/m 10,6 km/h (2 Bft) S 173 0 min 0 W/m 2,3 C 0,1 C 19,3 km/h (3 Bft)
27.12.2017 01:09 3,6 C 91 % 992,4 hPa 0,0 l/m 9,9 km/h (2 Bft) S 190 0 min 0 W/m 2,3 C 0,6 C 14,5 km/h (3 Bft)
27.12.2017 01:12 3,6 C 91 % 992,2 hPa 0,0 l/m 7,7 km/h (2 Bft) S 170 0 min 0 W/m 2,3 C 2,4 C 11,3 km/h (2 Bft)
27.12.2017 01:15 3,6 C 91 % 992,1 hPa 0,0 l/m 9,9 km/h (2 Bft) S 175 0 min 0 W/m 2,3 C 0,6 C 14,5 km/h (3 Bft)
27.12.2017 01:18 3,6 C 91 % 992,1 hPa 0,0 l/m 7,9 km/h (2 Bft) S 188 0 min 0 W/m 2,3 C 2,2 C 16,1 km/h (3 Bft)
27.12.2017 01:21 3,6 C 91 % 992,0 hPa 0,0 l/m 9,3 km/h (2 Bft) S 175 0 min 0 W/m 2,3 C 1,1 C 14,5 km/h (3 Bft)
27.12.2017 01:24 3,6 C 91 % 991,9 hPa 0,0 l/m 8,5 km/h (2 Bft) S 179 0 min 0 W/m 2,3 C 1,7 C 12,9 km/h (3 Bft)
27.12.2017 01:27 3,6 C 91 % 991,9 hPa 0,0 l/m 9,2 km/h (2 Bft) SW 219 0 min 0 W/m 2,3 C 1,1 C 14,5 km/h (3 Bft)
27.12.2017 01:30 3,5 C 91 % 991,8 hPa 0,0 l/m 10,1 km/h (2 Bft) S-SO 152 0 min 0 W/m 2,2 C 0,3 C 16,1 km/h (3 Bft)
27.12.2017 01:33 3,5 C 91 % 991,7 hPa 0,0 l/m 8,8 km/h (2 Bft) S-SW 200 0 min 0 W/m 2,2 C 1,4 C 16,1 km/h (3 Bft)
27.12.2017 01:36 3,6 C 91 % 991,6 hPa 0,0 l/m 12,0 km/h (2 Bft) S-SO 161 0 min 0 W/m 2,3 C -0,9 C 19,3 km/h (3 Bft)
27.12.2017 01:39 3,6 C 91 % 991,5 hPa 0,0 l/m 9,6 km/h (2 Bft) S-SW 204 0 min 0 W/m 2,3 C 0,8 C 17,7 km/h (3 Bft)
27.12.2017 01:42 3,6 C 91 % 991,4 hPa 0,0 l/m 10,2 km/h (2 Bft) S 182 0 min 0 W/m 2,3 C 0,4 C 17,7 km/h (3 Bft)
27.12.2017 01:45 3,6 C 91 % 991,4 hPa 0,0 l/m 10,6 km/h (2 Bft) S 169 0 min 0 W/m 2,3 C 0,1 C 17,7 km/h (3 Bft)
27.12.2017 01:48 3,6 C 91 % 991,3 hPa 0,0 l/m 10,2 km/h (2 Bft) S 179 0 min 0 W/m 2,3 C 0,4 C 17,7 km/h (3 Bft)
27.12.2017 01:51 3,6 C 91 % 991,3 hPa 0,0 l/m 10,1 km/h (2 Bft) S 173 0 min 0 W/m 2,3 C 0,5 C 19,3 km/h (3 Bft)
27.12.2017 01:54 3,6 C 91 % 991,4 hPa 0,0 l/m 8,8 km/h (2 Bft) S 182 0 min 0 W/m 2,3 C 1,5 C 17,7 km/h (3 Bft)
27.12.2017 01:57 3,6 C 91 % 991,4 hPa 0,0 l/m 10,0 km/h (2 Bft) S-SO 163 0 min 0 W/m 2,3 C 0,5 C 14,5 km/h (3 Bft)
27.12.2017 02:00 3,6 C 91 % 991,4 hPa 0,0 l/m 8,2 km/h (2 Bft) S-SO 155 0 min 0 W/m 2,3 C 2,0 C 11,3 km/h (2 Bft)
27.12.2017 02:03 3,7 C 91 % 991,3 hPa 0,0 l/m 10,0 km/h (2 Bft) S 170 0 min 0 W/m 2,4 C 0,6 C 16,1 km/h (3 Bft)
27.12.2017 02:06 3,7 C 91 % 991,2 hPa 0,0 l/m 9,5 km/h (2 Bft) S 175 0 min 0 W/m 2,4 C 1,0 C 14,5 km/h (3 Bft)
27.12.2017 02:09 3,7 C 91 % 991,2 hPa 0,0 l/m 9,4 km/h (2 Bft) S 176 0 min 0 W/m 2,4 C 1,1 C 16,1 km/h (3 Bft)
27.12.2017 02:12 3,7 C 91 % 991,1 hPa 0,0 l/m 10,2 km/h (2 Bft) S-SW 194 0 min 0 W/m 2,4 C 0,5 C 16,1 km/h (3 Bft)
27.12.2017 02:15 3,8 C 91 % 991,1 hPa 0,0 l/m 10,1 km/h (2 Bft) SO 142 0 min 0 W/m 2,5 C 0,7 C 16,1 km/h (3 Bft)
27.12.2017 02:18 3,8 C 91 % 991,0 hPa 0,0 l/m 8,9 km/h (2 Bft) S-SO 167 0 min 0 W/m 2,5 C 1,6 C 16,1 km/h (3 Bft)
27.12.2017 02:21 3,8 C 91 % 991,0 hPa 0,0 l/m 9,0 km/h (2 Bft) S-SO 167 0 min 0 W/m 2,5 C 1,5 C 12,9 km/h (3 Bft)
27.12.2017 02:24 3,8 C 91 % 991,0 hPa 0,0 l/m 8,8 km/h (2 Bft) SO 140 0 min 0 W/m 2,5 C 1,7 C 14,5 km/h (3 Bft)
27.12.2017 02:27 3,8 C 91 % 991,0 hPa 0,0 l/m 9,6 km/h (2 Bft) S 175 0 min 0 W/m 2,5 C 1,0 C 16,1 km/h (3 Bft)
27.12.2017 02:30 3,8 C 91 % 990,9 hPa 0,0 l/m 7,3 km/h (2 Bft) S-SO 168 0 min 0 W/m 2,5 C 3,0 C 14,5 km/h (3 Bft)
27.12.2017 02:33 3,8 C 91 % 990,8 hPa 0,0 l/m 8,8 km/h (2 Bft) S-SO 167 0 min 0 W/m 2,5 C 1,7 C 19,3 km/h (3 Bft)
27.12.2017 02:36 3,9 C 91 % 990,7 hPa 0,0 l/m 8,9 km/h (2 Bft) S 177 0 min 0 W/m 2,6 C 1,7 C 16,1 km/h (3 Bft)
27.12.2017 02:39 3,9 C 91 % 990,7 hPa 0,0 l/m 7,7 km/h (2 Bft) S-SO 152 0 min 0 W/m 2,6 C 2,7 C 16,1 km/h (3 Bft)
27.12.2017 02:42 3,9 C 91 % 990,6 hPa 0,0 l/m 7,5 km/h (2 Bft) S-SO 150 0 min 0 W/m 2,6 C 2,9 C 16,1 km/h (3 Bft)
27.12.2017 02:45 3,9 C 91 % 990,6 hPa 0,0 l/m 6,1 km/h (2 Bft) S-SO 147 0 min 0 W/m 2,6 C 3,9 C 16,1 km/h (3 Bft)
27.12.2017 02:48 3,9 C 91 % 990,6 hPa 0,0 l/m 7,1 km/h (2 Bft) SO 144 0 min 0 W/m 2,6 C 3,3 C 16,1 km/h (3 Bft)
27.12.2017 02:51 3,9 C 91 % 990,5 hPa 0,0 l/m 7,4 km/h (2 Bft) S 171 0 min 0 W/m 2,6 C 3,0 C 12,9 km/h (3 Bft)
27.12.2017 02:54 3,9 C 91 % 990,5 hPa 0,0 l/m 5,9 km/h (2 Bft) S-SO 149 0 min 0 W/m 2,6 C 3,9 C 14,5 km/h (3 Bft)
27.12.2017 02:57 3,9 C 91 % 990,5 hPa 0,0 l/m 5,9 km/h (2 Bft) S 171 0 min 0 W/m 2,6 C 3,9 C 11,3 km/h (2 Bft)
27.12.2017 03:00 3,9 C 91 % 990,4 hPa 0,0 l/m 7,0 km/h (2 Bft) S-SO 161 0 min 0 W/m 2,6 C 3,4 C 14,5 km/h (3 Bft)
27.12.2017 03:03 3,9 C 91 % 990,4 hPa 0,0 l/m 8,0 km/h (2 Bft) S 171 0 min 0 W/m 2,6 C 2,4 C 12,9 km/h (3 Bft)
27.12.2017 03:06 3,9 C 90 % 990,3 hPa 0,0 l/m 7,6 km/h (2 Bft) SO 128 0 min 0 W/m 2,4 C 2,8 C 14,5 km/h (3 Bft)
27.12.2017 03:09 3,9 C 90 % 990,3 hPa 0,0 l/m 6,5 km/h (2 Bft) S-SO 155 0 min 0 W/m 2,4 C 3,8 C 14,5 km/h (3 Bft)
27.12.2017 03:12 3,9 C 90 % 990,3 hPa 0,0 l/m 7,0 km/h (2 Bft) SO 144 0 min 0 W/m 2,4 C 3,4 C 12,9 km/h (3 Bft)
27.12.2017 03:15 3,9 C 90 % 990,2 hPa 0,0 l/m 6,9 km/h (2 Bft) O-SO 110 0 min 0 W/m 2,4 C 3,4 C 16,1 km/h (3 Bft)
27.12.2017 03:18 3,9 C 90 % 990,2 hPa 0,0 l/m 8,4 km/h (2 Bft) O-SO 123 0 min 0 W/m 2,4 C 2,1 C 16,1 km/h (3 Bft)
27.12.2017 03:21 3,9 C 90 % 990,1 hPa 0,0 l/m 7,8 km/h (2 Bft) O-SO 113 0 min 0 W/m 2,4 C 2,6 C 12,9 km/h (3 Bft)
27.12.2017 03:24 3,9 C 90 % 990,0 hPa 0,0 l/m 7,2 km/h (2 Bft) S-SO 153 0 min 0 W/m 2,4 C 3,2 C 14,5 km/h (3 Bft)
27.12.2017 03:27 3,9 C 90 % 989,9 hPa 0,0 l/m 6,8 km/h (2 Bft) O-SO 122 0 min 0 W/m 2,4 C 3,5 C 11,3 km/h (2 Bft)
27.12.2017 03:30 3,9 C 90 % 989,8 hPa 0,0 l/m 6,1 km/h (2 Bft) S-SO 161 0 min 0 W/m 2,4 C 3,9 C 14,5 km/h (3 Bft)
27.12.2017 03:33 3,9 C 90 % 989,6 hPa 0,0 l/m 7,1 km/h (2 Bft) S-SO 150 0 min 0 W/m 2,4 C 3,3 C 12,9 km/h (3 Bft)
27.12.2017 03:36 3,9 C 90 % 989,6 hPa 0,0 l/m 8,9 km/h (2 Bft) S-SO 163 0 min 0 W/m 2,4 C 1,7 C 19,3 km/h (3 Bft)
27.12.2017 03:39 3,9 C 90 % 989,4 hPa 0,0 l/m 7,6 km/h (2 Bft) SO 139 0 min 0 W/m 2,4 C 2,8 C 12,9 km/h (3 Bft)
27.12.2017 03:42 3,9 C 90 % 989,4 hPa 0,0 l/m 6,5 km/h (2 Bft) O-SO 119 0 min 0 W/m 2,4 C 3,8 C 12,9 km/h (3 Bft)
27.12.2017 03:45 3,9 C 90 % 989,3 hPa 0,0 l/m 7,5 km/h (2 Bft) S 169 0 min 0 W/m 2,4 C 2,9 C 12,9 km/h (3 Bft)
27.12.2017 03:48 3,9 C 90 % 989,3 hPa 0,0 l/m 5,9 km/h (2 Bft) S 181 0 min 0 W/m 2,4 C 3,9 C 11,3 km/h (2 Bft)
27.12.2017 03:51 3,9 C 90 % 989,2 hPa 0,0 l/m 7,3 km/h (2 Bft) O-SO 119 0 min 0 W/m 2,4 C 3,1 C 12,9 km/h (3 Bft)
27.12.2017 03:54 3,9 C 90 % 989,2 hPa 0,0 l/m 7,9 km/h (2 Bft) SO 143 0 min 0 W/m 2,4 C 2,5 C 17,7 km/h (3 Bft)
27.12.2017 03:57 3,9 C 90 % 989,0 hPa 0,0 l/m 7,7 km/h (2 Bft) O-SO 123 0 min 0 W/m 2,4 C 2,7 C 16,1 km/h (3 Bft)
27.12.2017 04:00 3,9 C 90 % 989,0 hPa 0,0 l/m 8,3 km/h (2 Bft) O-SO 123 0 min 0 W/m 2,4 C 2,2 C 17,7 km/h (3 Bft)
27.12.2017 04:03 4,0 C 90 % 989,0 hPa 0,0 l/m 6,2 km/h (2 Bft) S-SO 148 0 min 0 W/m 2,5 C 4,0 C 12,9 km/h (3 Bft)
27.12.2017 04:06 4,0 C 90 % 988,9 hPa 0,0 l/m 5,7 km/h (2 Bft) SO 127 0 min 0 W/m 2,5 C 4,0 C 9,7 km/h (2 Bft)
27.12.2017 04:09 4,0 C 90 % 988,8 hPa 0,0 l/m 7,7 km/h (2 Bft) O-SO 119 0 min 0 W/m 2,5 C 2,8 C 14,5 km/h (3 Bft)
27.12.2017 04:12 4,0 C 90 % 988,7 hPa 0,0 l/m 6,0 km/h (2 Bft) SO 138 0 min 0 W/m 2,5 C 4,0 C 11,3 km/h (2 Bft)
27.12.2017 04:15 4,0 C 90 % 988,6 hPa 0,0 l/m 8,3 km/h (2 Bft) SO 137 0 min 0 W/m 2,5 C 2,3 C 14,5 km/h (3 Bft)
27.12.2017 04:18 4,0 C 90 % 988,6 hPa 0,0 l/m 8,2 km/h (2 Bft) SO 125 0 min 0 W/m 2,5 C 2,4 C 14,5 km/h (3 Bft)
27.12.2017 04:21 4,0 C 90 % 988,5 hPa 0,0 l/m 7,1 km/h (2 Bft) SO 133 0 min 0 W/m 2,5 C 3,4 C 12,9 km/h (3 Bft)
27.12.2017 04:24 4,0 C 90 % 988,6 hPa 0,0 l/m 6,8 km/h (2 Bft) SO 134 0 min 0 W/m 2,5 C 3,6 C 14,5 km/h (3 Bft)
27.12.2017 04:27 4,0 C 90 % 988,5 hPa 0,0 l/m 7,0 km/h (2 Bft) S-SO 149 0 min 0 W/m 2,5 C 3,5 C 11,3 km/h (2 Bft)
27.12.2017 04:30 4,0 C 90 % 988,5 hPa 0,0 l/m 7,7 km/h (2 Bft) SO 127 0 min 0 W/m 2,5 C 2,8 C 12,9 km/h (3 Bft)
27.12.2017 04:33 4,0 C 90 % 988,5 hPa 0,0 l/m 7,5 km/h (2 Bft) SO 141 0 min 0 W/m 2,5 C 3,0 C 16,1 km/h (3 Bft)
27.12.2017 04:36 4,0 C 90 % 988,4 hPa 0,0 l/m 8,1 km/h (2 Bft) SO 137 0 min 0 W/m 2,5 C 2,5 C 17,7 km/h (3 Bft)
27.12.2017 04:39 3,9 C 90 % 988,3 hPa 0,0 l/m 7,2 km/h (2 Bft) O-SO 111 0 min 0 W/m 2,4 C 3,2 C 14,5 km/h (3 Bft)
27.12.2017 04:42 3,9 C 90 % 988,2 hPa 0,0 l/m 7,8 km/h (2 Bft) S-SO 150 0 min 0 W/m 2,4 C 2,6 C 14,5 km/h (3 Bft)
27.12.2017 04:45 3,9 C 90 % 988,2 hPa 0,0 l/m 7,5 km/h (2 Bft) SO 128 0 min 0 W/m 2,4 C 2,9 C 12,9 km/h (3 Bft)
27.12.2017 04:48 3,9 C 90 % 988,1 hPa 0,0 l/m 8,4 km/h (2 Bft) SO 133 0 min 0 W/m 2,4 C 2,1 C 14,5 km/h (3 Bft)
27.12.2017 04:51 3,9 C 90 % 988,0 hPa 0,0 l/m 9,3 km/h (2 Bft) O-SO 103 0 min 0 W/m 2,4 C 1,4 C 14,5 km/h (3 Bft)
27.12.2017 04:54 3,9 C 90 % 987,9 hPa 0,0 l/m 7,6 km/h (2 Bft) S-SO 155 0 min 0 W/m 2,4 C 2,8 C 14,5 km/h (3 Bft)
27.12.2017 04:57 3,9 C 90 % 987,9 hPa 0,0 l/m 7,8 km/h (2 Bft) S-SO 148 0 min 0 W/m 2,4 C 2,6 C 17,7 km/h (3 Bft)
27.12.2017 05:00 3,9 C 90 % 987,8 hPa 0,0 l/m 6,4 km/h (2 Bft) SO 144 0 min 0 W/m 2,4 C 3,9 C 11,3 km/h (2 Bft)
27.12.2017 05:03 3,9 C 90 % 987,9 hPa 0,0 l/m 8,9 km/h (2 Bft) S-SO 151 0 min 0 W/m 2,4 C 1,7 C 16,1 km/h (3 Bft)
27.12.2017 05:06 3,9 C 90 % 987,8 hPa 0,0 l/m 8,1 km/h (2 Bft) SO 131 0 min 0 W/m 2,4 C 2,4 C 12,9 km/h (3 Bft)
27.12.2017 05:09 3,9 C 90 % 987,7 hPa 0,0 l/m 9,0 km/h (2 Bft) SO 138 0 min 0 W/m 2,4 C 1,6 C 17,7 km/h (3 Bft)
27.12.2017 05:12 3,9 C 90 % 987,6 hPa 0,0 l/m 8,1 km/h (2 Bft) SO 140 0 min 0 W/m 2,4 C 2,4 C 11,3 km/h (2 Bft)
27.12.2017 05:15 3,9 C 90 % 987,5 hPa 0,0 l/m 8,4 km/h (2 Bft) SO 130 0 min 0 W/m 2,4 C 2,1 C 14,5 km/h (3 Bft)
27.12.2017 05:18 3,9 C 90 % 987,4 hPa 0,0 l/m 9,6 km/h (2 Bft) O-SO 105 0 min 0 W/m 2,4 C 1,2 C 14,5 km/h (3 Bft)
27.12.2017 05:21 3,9 C 90 % 987,3 hPa 0,0 l/m 8,1 km/h (2 Bft) O-SO 102 0 min 0 W/m 2,4 C 2,4 C 12,9 km/h (3 Bft)
27.12.2017 05:24 3,9 C 90 % 987,4 hPa 0,0 l/m 9,1 km/h (2 Bft) SO 134 0 min 0 W/m 2,4 C 1,5 C 17,7 km/h (3 Bft)
27.12.2017 05:27 3,9 C 90 % 987,3 hPa 0,0 l/m 10,3 km/h (2 Bft) O-SO 108 0 min 0 W/m 2,4 C 0,6 C 17,7 km/h (3 Bft)
27.12.2017 05:30 3,9 C 90 % 987,5 hPa 0,0 l/m 8,5 km/h (2 Bft) S-SW 192 0 min 0 W/m 2,4 C 2,0 C 16,1 km/h (3 Bft)
27.12.2017 05:33 3,9 C 90 % 987,4 hPa 0,0 l/m 9,7 km/h (2 Bft) S-SO 150 0 min 0 W/m 2,4 C 1,1 C 14,5 km/h (3 Bft)
27.12.2017 05:36 3,9 C 90 % 987,3 hPa 0,0 l/m 10,6 km/h (2 Bft) O-SO 122 0 min 0 W/m 2,4 C 0,4 C 20,9 km/h (4 Bft)
27.12.2017 05:39 3,9 C 90 % 987,3 hPa 0,0 l/m 8,9 km/h (2 Bft) SO 130 0 min 0 W/m 2,4 C 1,7 C 14,5 km/h (3 Bft)
27.12.2017 05:42 4,0 C 90 % 987,2 hPa 0,0 l/m 9,9 km/h (2 Bft) S-SO 151 0 min 0 W/m 2,5 C 1,0 C 16,1 km/h (3 Bft)
27.12.2017 05:45 4,0 C 90 % 987,3 hPa 0,0 l/m 8,9 km/h (2 Bft) SO 124 0 min 0 W/m 2,5 C 1,8 C 17,7 km/h (3 Bft)
27.12.2017 05:48 4,0 C 89 % 987,2 hPa 0,0 l/m 11,2 km/h (2 Bft) S-SO 150 0 min 0 W/m 2,4 C 0,1 C 20,9 km/h (4 Bft)
27.12.2017 05:51 4,0 C 89 % 987,0 hPa 0,0 l/m 11,7 km/h (2 Bft) SO 134 0 min 0 W/m 2,4 C -0,2 C 16,1 km/h (3 Bft)
27.12.2017 05:54 4,0 C 89 % 987,0 hPa 0,0 l/m 11,7 km/h (2 Bft) SO 128 0 min 0 W/m 2,4 C -0,2 C 17,7 km/h (3 Bft)
27.12.2017 05:57 4,0 C 89 % 986,9 hPa 0,0 l/m 10,3 km/h (2 Bft) O 101 0 min 0 W/m 2,4 C 0,8 C 22,5 km/h (4 Bft)
27.12.2017 06:00 4,0 C 89 % 986,7 hPa 0,0 l/m 9,1 km/h (2 Bft) SO 128 0 min 0 W/m 2,4 C 1,6 C 14,5 km/h (3 Bft)
27.12.2017 06:03 4,0 C 89 % 986,7 hPa 0,0 l/m 9,0 km/h (2 Bft) S-SO 159 0 min 0 W/m 2,4 C 1,7 C 17,7 km/h (3 Bft)
27.12.2017 06:06 4,0 C 89 % 986,5 hPa 0,0 l/m 10,5 km/h (2 Bft) S 169 0 min 0 W/m 2,4 C 0,6 C 20,9 km/h (4 Bft)
27.12.2017 06:09 4,0 C 89 % 986,6 hPa 0,0 l/m 9,4 km/h (2 Bft) SO 144 0 min 0 W/m 2,4 C 1,4 C 20,9 km/h (4 Bft)
27.12.2017 06:12 4,1 C 89 % 986,5 hPa 0,0 l/m 11,2 km/h (2 Bft) S 189 0 min 0 W/m 2,5 C 0,2 C 17,7 km/h (3 Bft)
27.12.2017 06:15 4,1 C 89 % 986,4 hPa 0,0 l/m 9,5 km/h (2 Bft) S-SO 155 0 min 0 W/m 2,5 C 1,4 C 16,1 km/h (3 Bft)
27.12.2017 06:18 4,1 C 89 % 986,4 hPa 0,0 l/m 9,3 km/h (2 Bft) SO 126 0 min 0 W/m 2,5 C 1,6 C 16,1 km/h (3 Bft)
27.12.2017 06:21 4,1 C 89 % 986,4 hPa 0,0 l/m 10,7 km/h (2 Bft) S-SO 154 0 min 0 W/m 2,5 C 0,6 C 24,1 km/h (4 Bft)
27.12.2017 06:24 4,1 C 89 % 986,4 hPa 0,0 l/m 10,1 km/h (2 Bft) SO 137 0 min 0 W/m 2,5 C 1,0 C 17,7 km/h (3 Bft)
27.12.2017 06:27 4,1 C 89 % 986,4 hPa 0,0 l/m 9,8 km/h (2 Bft) SO 132 0 min 0 W/m 2,5 C 1,2 C 16,1 km/h (3 Bft)
27.12.2017 06:30 4,1 C 89 % 986,4 hPa 0,0 l/m 10,2 km/h (2 Bft) O-SO 117 0 min 0 W/m 2,5 C 0,9 C 17,7 km/h (3 Bft)
27.12.2017 06:33 4,1 C 89 % 986,4 hPa 0,0 l/m 10,1 km/h (2 Bft) SO 136 0 min 0 W/m 2,5 C 1,0 C 19,3 km/h (3 Bft)
27.12.2017 06:36 4,1 C 88 % 986,4 hPa 0,0 l/m 9,5 km/h (2 Bft) SO 141 0 min 0 W/m 2,3 C 1,4 C 17,7 km/h (3 Bft)
27.12.2017 06:39 4,1 C 88 % 986,3 hPa 0,0 l/m 9,5 km/h (2 Bft) SO 139 0 min 0 W/m 2,3 C 1,4 C 17,7 km/h (3 Bft)
27.12.2017 06:42 4,2 C 88 % 986,2 hPa 0,0 l/m 9,3 km/h (2 Bft) O-SO 111 0 min 0 W/m 2,4 C 1,7 C 14,5 km/h (3 Bft)
27.12.2017 06:45 4,2 C 88 % 986,2 hPa 0,0 l/m 10,5 km/h (2 Bft) S-SO 165 0 min 0 W/m 2,4 C 0,8 C 17,7 km/h (3 Bft)
27.12.2017 06:48 4,2 C 88 % 986,1 hPa 0,0 l/m 9,3 km/h (2 Bft) S-SO 148 0 min 0 W/m 2,4 C 1,7 C 17,7 km/h (3 Bft)
27.12.2017 06:51 4,2 C 88 % 986,1 hPa 0,0 l/m 9,3 km/h (2 Bft) S-SO 166 0 min 0 W/m 2,4 C 1,7 C 16,1 km/h (3 Bft)
27.12.2017 06:54 4,2 C 88 % 986,1 hPa 0,0 l/m 10,3 km/h (2 Bft) SO 132 0 min 0 W/m 2,4 C 1,0 C 19,3 km/h (3 Bft)
27.12.2017 06:57 4,2 C 88 % 986,1 hPa 0,0 l/m 9,9 km/h (2 Bft) S-SO 167 0 min 0 W/m 2,4 C 1,3 C 17,7 km/h (3 Bft)
27.12.2017 07:00 4,2 C 88 % 986,0 hPa 0,0 l/m 8,6 km/h (2 Bft) S-SO 147 0 min 0 W/m 2,4 C 2,3 C 14,5 km/h (3 Bft)
27.12.2017 07:03 4,2 C 88 % 985,9 hPa 0,0 l/m 9,6 km/h (2 Bft) S-SO 155 0 min 0 W/m 2,4 C 1,5 C 19,3 km/h (3 Bft)
27.12.2017 07:06 4,2 C 88 % 985,9 hPa 0,0 l/m 9,2 km/h (2 Bft) SO 135 0 min 0 W/m 2,4 C 1,8 C 16,1 km/h (3 Bft)
27.12.2017 07:09 4,3 C 88 % 985,8 hPa 0,0 l/m 10,4 km/h (2 Bft) SO 129 0 min 0 W/m 2,5 C 1,0 C 20,9 km/h (4 Bft)
27.12.2017 07:12 4,3 C 88 % 985,7 hPa 0,0 l/m 9,7 km/h (2 Bft) O-SO 117 0 min 0 W/m 2,5 C 1,5 C 19,3 km/h (3 Bft)
27.12.2017 07:15 4,3 C 89 % 985,7 hPa 0,0 l/m 10,4 km/h (2 Bft) O-SO 121 0 min 0 W/m 2,7 C 1,0 C 22,5 km/h (4 Bft)
27.12.2017 07:18 4,3 C 89 % 985,7 hPa 0,0 l/m 9,0 km/h (2 Bft) O-SO 121 0 min 0 W/m 2,7 C 2,1 C 17,7 km/h (3 Bft)
27.12.2017 07:21 4,3 C 88 % 985,7 hPa 0,0 l/m 7,9 km/h (2 Bft) S-SO 148 0 min 0 W/m 2,5 C 3,0 C 14,5 km/h (3 Bft)
27.12.2017 07:24 4,3 C 89 % 985,6 hPa 0,0 l/m 9,6 km/h (2 Bft) SO 132 0 min 0 W/m 2,7 C 1,6 C 27,4 km/h (5 Bft)
27.12.2017 07:27 4,4 C 89 % 985,6 hPa 0,0 l/m 10,6 km/h (2 Bft) SO 132 0 min 0 W/m 2,7 C 1,0 C 22,5 km/h (4 Bft)
27.12.2017 07:30 4,4 C 89 % 985,6 hPa 0,0 l/m 11,1 km/h (2 Bft) O-SO 119 0 min 0 W/m 2,7 C 0,6 C 17,7 km/h (3 Bft)
27.12.2017 07:33 4,4 C 88 % 985,5 hPa 0,0 l/m 10,8 km/h (2 Bft) S-SO 150 0 min 0 W/m 2,6 C 0,8 C 25,7 km/h (4 Bft)
27.12.2017 07:36 4,4 C 89 % 985,5 hPa 0,0 l/m 9,7 km/h (2 Bft) O-SO 115 0 min 0 W/m 2,7 C 1,6 C 16,1 km/h (3 Bft)
27.12.2017 07:39 4,5 C 89 % 985,5 hPa 0,0 l/m 11,6 km/h (2 Bft) S-SO 157 0 min 0 W/m 2,8 C 0,4 C 19,3 km/h (3 Bft)
27.12.2017 07:42 4,5 C 89 % 985,5 hPa 0,0 l/m 13,0 km/h (3 Bft) S-SO 155 0 min 0 W/m 2,8 C -0,4 C 29,0 km/h (5 Bft)
27.12.2017 07:45 4,5 C 89 % 985,5 hPa 0,0 l/m 10,5 km/h (2 Bft) S-SO 163 0 min 0 W/m 2,8 C 1,2 C 16,1 km/h (3 Bft)
27.12.2017 07:48 4,5 C 89 % 985,4 hPa 0,0 l/m 13,1 km/h (3 Bft) SO 125 0 min 0 W/m 2,8 C -0,5 C 25,7 km/h (4 Bft)
27.12.2017 07:51 4,5 C 89 % 985,3 hPa 0,0 l/m 10,2 km/h (2 Bft) O-SO 109 0 min 0 W/m 2,8 C 1,4 C 16,1 km/h (3 Bft)
27.12.2017 07:54 4,5 C 90 % 985,3 hPa 0,0 l/m 10,0 km/h (2 Bft) S 171 0 min 0 W/m 3,0 C 1,5 C 17,7 km/h (3 Bft)
27.12.2017 07:57 4,5 C 90 % 985,3 hPa 0,0 l/m 11,3 km/h (2 Bft) SO 126 0 min 0 W/m 3,0 C 0,6 C 20,9 km/h (4 Bft)
27.12.2017 08:00 4,5 C 90 % 985,3 hPa 0,0 l/m 10,5 km/h (2 Bft) SO 138 0 min 0 W/m 3,0 C 1,2 C 14,5 km/h (3 Bft)
27.12.2017 08:03 4,4 C 90 % 985,2 hPa 0,0 l/m 8,2 km/h (2 Bft) SO 146 0 min 0 W/m 2,9 C 2,8 C 20,9 km/h (4 Bft)
27.12.2017 08:06 4,4 C 90 % 985,1 hPa 0,0 l/m 9,7 km/h (2 Bft) O-SO 119 0 min 0 W/m 2,9 C 1,6 C 14,5 km/h (3 Bft)
27.12.2017 08:09 4,4 C 90 % 985,1 hPa 0,2 l/m 10,7 km/h (2 Bft) SO 137 0 min 0 W/m 2,9 C 0,9 C 17,7 km/h (3 Bft)
27.12.2017 08:12 4,4 C 90 % 985,1 hPa 0,0 l/m 9,8 km/h (2 Bft) O-SO 107 0 min 0 W/m 2,9 C 1,6 C 16,1 km/h (3 Bft)
27.12.2017 08:15 4,4 C 91 % 985,1 hPa 0,0 l/m 9,9 km/h (2 Bft) S-SO 159 0 min 0 W/m 3,1 C 1,5 C 24,1 km/h (4 Bft)
27.12.2017 08:18 4,4 C 91 % 985,0 hPa 0,0 l/m 9,4 km/h (2 Bft) SO 139 0 min 0 W/m 3,1 C 1,9 C 20,9 km/h (4 Bft)
27.12.2017 08:21 4,3 C 91 % 984,9 hPa 0,0 l/m 9,2 km/h (2 Bft) S-SO 159 0 min 0 W/m 3,0 C 1,9 C 16,1 km/h (3 Bft)
27.12.2017 08:24 4,3 C 91 % 984,9 hPa 0,0 l/m 9,0 km/h (2 Bft) SO 132 0 min 0 W/m 3,0 C 2,1 C 16,1 km/h (3 Bft)
27.12.2017 08:27 4,3 C 91 % 984,8 hPa 0,0 l/m 7,2 km/h (2 Bft) O-SO 110 0 min 0 W/m 3,0 C 3,6 C 16,1 km/h (3 Bft)
27.12.2017 08:30 4,3 C 91 % 984,8 hPa 0,0 l/m 7,0 km/h (2 Bft) NO 55 0 min 0 W/m 3,0 C 3,8 C 14,5 km/h (3 Bft)
27.12.2017 08:33 4,3 C 91 % 984,8 hPa 0,0 l/m 8,6 km/h (2 Bft) S-SO 161 0 min 0 W/m 3,0 C 2,4 C 14,5 km/h (3 Bft)
27.12.2017 08:36 4,3 C 91 % 984,8 hPa 0,0 l/m 8,8 km/h (2 Bft) S-SO 168 0 min 0 W/m 3,0 C 2,2 C 14,5 km/h (3 Bft)
27.12.2017 08:39 4,3 C 91 % 984,7 hPa 0,0 l/m 6,3 km/h (2 Bft) O-SO 122 0 min 0 W/m 3,0 C 4,3 C 14,5 km/h (3 Bft)
27.12.2017 08:42 4,3 C 92 % 984,8 hPa 0,0 l/m 9,3 km/h (2 Bft) S-SO 157 0 min 0 W/m 3,1 C 1,8 C 16,1 km/h (3 Bft)
27.12.2017 08:45 4,2 C 92 % 984,8 hPa 0,0 l/m 9,7 km/h (2 Bft) SO 136 0 min 0 W/m 3,0 C 1,4 C 20,9 km/h (4 Bft)
27.12.2017 08:48 4,2 C 92 % 984,8 hPa 0,0 l/m 10,3 km/h (2 Bft) S 171 0 min 0 W/m 3,0 C 1,0 C 17,7 km/h (3 Bft)
27.12.2017 08:51 4,2 C 92 % 984,9 hPa 0,0 l/m 6,9 km/h (2 Bft) SO 127 0 min 0 W/m 3,0 C 3,8 C 12,9 km/h (3 Bft)
27.12.2017 08:54 4,2 C 92 % 984,8 hPa 0,0 l/m 10,4 km/h (2 Bft) S 177 0 min 0 W/m 3,0 C 0,9 C 19,3 km/h (3 Bft)
27.12.2017 08:57 4,2 C 92 % 984,7 hPa 0,0 l/m 12,0 km/h (2 Bft) SO 128 0 min 0 W/m 3,0 C -0,2 C 22,5 km/h (4 Bft)
27.12.2017 09:00 4,2 C 92 % 984,7 hPa 0,0 l/m 6,9 km/h (2 Bft) S 169 0 min 0 W/m 3,0 C 3,8 C 11,3 km/h (2 Bft)
27.12.2017 09:03 4,2 C 92 % 984,7 hPa 0,0 l/m 8,6 km/h (2 Bft) S-SO 155 0 min 0 W/m 3,0 C 2,3 C 16,1 km/h (3 Bft)
27.12.2017 09:06 4,2 C 92 % 984,6 hPa 0,0 l/m 12,0 km/h (2 Bft) S-SO 156 0 min 5 W/m 3,0 C -0,2 C 22,5 km/h (4 Bft)
27.12.2017 09:09 4,1 C 92 % 984,6 hPa 0,0 l/m 9,1 km/h (2 Bft) O-SO 107 0 min 5 W/m 2,9 C 1,8 C 16,1 km/h (3 Bft)
27.12.2017 09:12 4,1 C 92 % 984,6 hPa 0,0 l/m 8,8 km/h (2 Bft) SO 127 0 min 7 W/m 2,9 C 2,0 C 16,1 km/h (3 Bft)
27.12.2017 09:15 4,1 C 92 % 984,5 hPa 0,0 l/m 9,1 km/h (2 Bft) S-SO 161 0 min 9 W/m 2,9 C 1,8 C 20,9 km/h (4 Bft)
27.12.2017 09:18 4,1 C 92 % 984,5 hPa 0,0 l/m 9,2 km/h (2 Bft) S-SO 153 0 min 9 W/m 2,9 C 1,7 C 19,3 km/h (3 Bft)
27.12.2017 09:21 4,1 C 92 % 984,4 hPa 0,0 l/m 8,4 km/h (2 Bft) O-SO 115 0 min 11 W/m 2,9 C 2,3 C 14,5 km/h (3 Bft)
27.12.2017 09:24 4,1 C 92 % 984,4 hPa 0,0 l/m 9,3 km/h (2 Bft) SO 146 0 min 11 W/m 2,9 C 1,6 C 16,1 km/h (3 Bft)
27.12.2017 09:27 4,1 C 92 % 984,3 hPa 0,0 l/m 9,5 km/h (2 Bft) O-SO 117 0 min 11 W/m 2,9 C 1,4 C 19,3 km/h (3 Bft)
27.12.2017 09:30 4,1 C 92 % 984,3 hPa 0,0 l/m 7,0 km/h (2 Bft) SO 136 0 min 11 W/m 2,9 C 3,6 C 12,9 km/h (3 Bft)
27.12.2017 09:33 4,1 C 92 % 984,2 hPa 0,0 l/m 8,2 km/h (2 Bft) SO 132 0 min 12 W/m 2,9 C 2,5 C 14,5 km/h (3 Bft)
27.12.2017 09:36 4,2 C 92 % 984,2 hPa 0,0 l/m 9,7 km/h (2 Bft) SO 131 0 min 12 W/m 3,0 C 1,4 C 16,1 km/h (3 Bft)
27.12.2017 09:39 4,2 C 92 % 984,1 hPa 0,0 l/m 9,0 km/h (2 Bft) O-NO 59 0 min 14 W/m 3,0 C 1,9 C 17,7 km/h (3 Bft)
27.12.2017 09:42 4,2 C 92 % 984,0 hPa 0,0 l/m 8,2 km/h (2 Bft) O-SO 118 0 min 16 W/m 3,0 C 2,6 C 16,1 km/h (3 Bft)
27.12.2017 09:45 4,2 C 92 % 984,1 hPa 0,0 l/m 7,0 km/h (2 Bft) SO 124 0 min 19 W/m 3,0 C 3,7 C 19,3 km/h (3 Bft)
27.12.2017 09:48 4,2 C 91 % 984,0 hPa 0,0 l/m 10,0 km/h (2 Bft) S 171 0 min 21 W/m 2,9 C 1,2 C 20,9 km/h (4 Bft)
27.12.2017 09:51 4,2 C 91 % 984,0 hPa 0,0 l/m 9,7 km/h (2 Bft) O-SO 121 0 min 23 W/m 2,9 C 1,4 C 19,3 km/h (3 Bft)
27.12.2017 09:54 4,2 C 91 % 984,0 hPa 0,0 l/m 10,0 km/h (2 Bft) S-SO 163 0 min 25 W/m 2,9 C 1,2 C 19,3 km/h (3 Bft)
27.12.2017 09:57 4,2 C 91 % 984,0 hPa 0,0 l/m 10,3 km/h (2 Bft) S-SO 150 0 min 25 W/m 2,9 C 1,0 C 14,5 km/h (3 Bft)
27.12.2017 10:00 4,2 C 91 % 983,9 hPa 0,0 l/m 12,3 km/h (2 Bft) S-SO 165 0 min 25 W/m 2,9 C -0,4 C 19,3 km/h (3 Bft)
27.12.2017 10:03 4,3 C 91 % 983,8 hPa 0,0 l/m 10,9 km/h (2 Bft) SO 144 0 min 23 W/m 3,0 C 0,7 C 19,3 km/h (3 Bft)
27.12.2017 10:06 4,3 C 91 % 983,9 hPa 0,0 l/m 10,6 km/h (2 Bft) SO 144 0 min 25 W/m 3,0 C 0,9 C 19,3 km/h (3 Bft)
27.12.2017 10:09 4,3 C 91 % 983,8 hPa 0,0 l/m 10,5 km/h (2 Bft) S-SO 157 0 min 26 W/m 3,0 C 0,9 C 22,5 km/h (4 Bft)
27.12.2017 10:12 4,3 C 90 % 983,9 hPa 0,0 l/m 11,3 km/h (2 Bft) S-SO 149 0 min 28 W/m 2,8 C 0,4 C 24,1 km/h (4 Bft)
27.12.2017 10:15 4,3 C 90 % 983,9 hPa 0,0 l/m 11,4 km/h (2 Bft) S 171 0 min 30 W/m 2,8 C 0,3 C 20,9 km/h (4 Bft)
27.12.2017 10:18 4,4 C 90 % 983,9 hPa 0,0 l/m 11,0 km/h (2 Bft) SO 133 0 min 30 W/m 2,9 C 0,7 C 24,1 km/h (4 Bft)
27.12.2017 10:21 4,4 C 90 % 983,9 hPa 0,0 l/m 8,6 km/h (2 Bft) S-SO 161 0 min 28 W/m 2,9 C 2,5 C 14,5 km/h (3 Bft)
27.12.2017 10:24 4,4 C 90 % 983,9 hPa 0,0 l/m 13,0 km/h (3 Bft) SO 132 0 min 28 W/m 2,9 C -0,5 C 22,5 km/h (4 Bft)
27.12.2017 10:27 4,4 C 90 % 983,9 hPa 0,0 l/m 8,9 km/h (2 Bft) SO 144 0 min 32 W/m 2,9 C 2,2 C 22,5 km/h (4 Bft)
27.12.2017 10:30 4,5 C 89 % 984,0 hPa 0,0 l/m 10,4 km/h (2 Bft) S-SO 151 0 min 33 W/m 2,8 C 1,2 C 19,3 km/h (3 Bft)
27.12.2017 10:33 4,5 C 89 % 983,9 hPa 0,0 l/m 10,8 km/h (2 Bft) S-SO 159 0 min 35 W/m 2,8 C 1,0 C 22,5 km/h (4 Bft)
27.12.2017 10:36 4,5 C 89 % 983,9 hPa 0,0 l/m 9,4 km/h (2 Bft) SO 145 0 min 39 W/m 2,8 C 2,0 C 20,9 km/h (4 Bft)
27.12.2017 10:39 4,6 C 89 % 984,0 hPa 0,0 l/m 9,4 km/h (2 Bft) O-SO 114 0 min 46 W/m 2,9 C 2,1 C 16,1 km/h (3 Bft)
27.12.2017 10:42 4,6 C 89 % 984,0 hPa 0,0 l/m 8,1 km/h (2 Bft) O-SO 113 0 min 54 W/m 2,9 C 3,1 C 16,1 km/h (3 Bft)
27.12.2017 10:45 4,7 C 89 % 983,9 hPa 0,0 l/m 8,3 km/h (2 Bft) O-SO 113 0 min 58 W/m 3,0 C 3,0 C 16,1 km/h (3 Bft)
27.12.2017 10:48 4,8 C 89 % 983,8 hPa 0,0 l/m 9,4 km/h (2 Bft) S-SO 153 0 min 60 W/m 3,1 C 2,3 C 14,5 km/h (3 Bft)
27.12.2017 10:51 4,8 C 88 % 983,8 hPa 0,0 l/m 11,3 km/h (2 Bft) S-SO 165 0 min 62 W/m 3,0 C 1,0 C 16,1 km/h (3 Bft)
27.12.2017 10:54 4,9 C 88 % 983,8 hPa 0,0 l/m 8,4 km/h (2 Bft) S 169 0 min 62 W/m 3,1 C 3,2 C 16,1 km/h (3 Bft)
27.12.2017 10:57 4,9 C 88 % 983,8 hPa 0,0 l/m 8,2 km/h (2 Bft) O-NO 78 0 min 62 W/m 3,1 C 3,3 C 12,9 km/h (3 Bft)
27.12.2017 11:00 4,9 C 88 % 983,7 hPa 0,0 l/m 9,2 km/h (2 Bft) S 183 0 min 65 W/m 3,1 C 2,5 C 16,1 km/h (3 Bft)
27.12.2017 11:03 4,9 C 88 % 983,7 hPa 0,0 l/m 8,1 km/h (2 Bft) SO 129 0 min 65 W/m 3,1 C 3,4 C 17,7 km/h (3 Bft)
27.12.2017 11:06 5,0 C 87 % 983,6 hPa 0,0 l/m 8,8 km/h (2 Bft) S 175 0 min 67 W/m 3,0 C 3,0 C 16,1 km/h (3 Bft)
27.12.2017 11:09 5,0 C 87 % 983,6 hPa 0,0 l/m 10,3 km/h (2 Bft) S-SO 164 0 min 70 W/m 3,0 C 1,9 C 19,3 km/h (3 Bft)
27.12.2017 11:12 5,1 C 87 % 983,5 hPa 0,0 l/m 9,1 km/h (2 Bft) SO 142 0 min 72 W/m 3,1 C 2,8 C 19,3 km/h (3 Bft)
27.12.2017 11:15 5,1 C 87 % 983,4 hPa 0,0 l/m 9,1 km/h (2 Bft) S-SO 166 0 min 69 W/m 3,1 C 2,8 C 17,7 km/h (3 Bft)
27.12.2017 11:18 5,1 C 87 % 983,4 hPa 0,0 l/m 10,3 km/h (2 Bft) S-SO 157 0 min 65 W/m 3,1 C 2,0 C 16,1 km/h (3 Bft)
27.12.2017 11:21 5,1 C 87 % 983,4 hPa 0,0 l/m 10,8 km/h (2 Bft) SO 129 0 min 63 W/m 3,1 C 1,6 C 24,1 km/h (4 Bft)
27.12.2017 11:24 5,1 C 87 % 983,3 hPa 0,0 l/m 12,5 km/h (2 Bft) O 99 0 min 67 W/m 3,1 C 0,6 C 22,5 km/h (4 Bft)
27.12.2017 11:27 5,1 C 87 % 983,3 hPa 0,0 l/m 9,2 km/h (2 Bft) S 172 0 min 70 W/m 3,1 C 2,8 C 20,9 km/h (4 Bft)
27.12.2017 11:30 5,1 C 87 % 983,3 hPa 0,0 l/m 10,4 km/h (2 Bft) S-SO 157 0 min 72 W/m 3,1 C 1,9 C 22,5 km/h (4 Bft)
27.12.2017 11:33 5,1 C 88 % 983,2 hPa 0,0 l/m 10,0 km/h (2 Bft) SO 126 0 min 76 W/m 3,3 C 2,2 C 20,9 km/h (4 Bft)
27.12.2017 11:36 5,1 C 88 % 983,2 hPa 0,0 l/m 9,9 km/h (2 Bft) SO 126 0 min 58 W/m 3,3 C 2,3 C 16,1 km/h (3 Bft)
27.12.2017 11:39 5,2 C 88 % 983,1 hPa 0,0 l/m 9,8 km/h (2 Bft) S-SO 153 0 min 69 W/m 3,4 C 2,4 C 16,1 km/h (3 Bft)
27.12.2017 11:42 5,2 C 88 % 983,0 hPa 0,0 l/m 7,8 km/h (2 Bft) SO 126 0 min 79 W/m 3,4 C 4,0 C 14,5 km/h (3 Bft)
27.12.2017 11:45 5,2 C 88 % 982,9 hPa 0,0 l/m 9,1 km/h (2 Bft) SO 126 0 min 88 W/m 3,4 C 2,9 C 16,1 km/h (3 Bft)
27.12.2017 11:48 5,2 C 88 % 982,8 hPa 0,0 l/m 8,8 km/h (2 Bft) SO 130 0 min 83 W/m 3,4 C 3,2 C 14,5 km/h (3 Bft)
27.12.2017 11:51 5,2 C 88 % 982,8 hPa 0,0 l/m 10,1 km/h (2 Bft) SO 129 0 min 74 W/m 3,4 C 2,2 C 17,7 km/h (3 Bft)
27.12.2017 11:54 5,2 C 88 % 982,8 hPa 0,0 l/m 9,8 km/h (2 Bft) S-SO 152 0 min 58 W/m 3,4 C 2,4 C 16,1 km/h (3 Bft)
27.12.2017 11:57 5,2 C 88 % 982,7 hPa 0,0 l/m 9,8 km/h (2 Bft) S-SO 161 0 min 47 W/m 3,4 C 2,4 C 17,7 km/h (3 Bft)
27.12.2017 12:00 5,2 C 88 % 982,7 hPa 0,0 l/m 10,5 km/h (2 Bft) SO 132 0 min 51 W/m 3,4 C 1,9 C 20,9 km/h (4 Bft)
27.12.2017 12:03 5,2 C 88 % 982,7 hPa 0,0 l/m 9,5 km/h (2 Bft) O 100 0 min 44 W/m 3,4 C 2,7 C 14,5 km/h (3 Bft)
27.12.2017 12:06 5,2 C 88 % 982,6 hPa 0,0 l/m 7,2 km/h (2 Bft) S 173 0 min 44 W/m 3,4 C 4,5 C 14,5 km/h (3 Bft)
27.12.2017 12:09 5,2 C 88 % 982,6 hPa 0,0 l/m 8,4 km/h (2 Bft) SO 127 0 min 35 W/m 3,4 C 3,5 C 17,7 km/h (3 Bft)
27.12.2017 12:12 5,2 C 88 % 982,6 hPa 0,0 l/m 10,0 km/h (2 Bft) SO 145 0 min 32 W/m 3,4 C 2,3 C 17,7 km/h (3 Bft)
27.12.2017 12:15 5,2 C 88 % 982,5 hPa 0,0 l/m 11,2 km/h (2 Bft) S-SO 148 0 min 26 W/m 3,4 C 1,5 C 20,9 km/h (4 Bft)
27.12.2017 12:18 5,2 C 88 % 982,6 hPa 0,0 l/m 9,2 km/h (2 Bft) S 173 0 min 26 W/m 3,4 C 2,9 C 17,7 km/h (3 Bft)
27.12.2017 12:21 5,2 C 88 % 982,5 hPa 0,0 l/m 10,1 km/h (2 Bft) SO 138 0 min 26 W/m 3,4 C 2,2 C 17,7 km/h (3 Bft)
27.12.2017 12:24 5,2 C 88 % 982,5 hPa 0,0 l/m 8,8 km/h (2 Bft) S-SO 160 0 min 25 W/m 3,4 C 3,2 C 20,9 km/h (4 Bft)
27.12.2017 12:27 5,2 C 88 % 982,5 hPa 0,0 l/m 9,4 km/h (2 Bft) SO 142 0 min 23 W/m 3,4 C 2,7 C 17,7 km/h (3 Bft)
27.12.2017 12:30 5,2 C 88 % 982,5 hPa 0,0 l/m 8,1 km/h (2 Bft) S 176 0 min 21 W/m 3,4 C 3,7 C 19,3 km/h (3 Bft)
27.12.2017 12:33 5,2 C 88 % 982,5 hPa 0,0 l/m 7,5 km/h (2 Bft) S-SO 151 0 min 26 W/m 3,4 C 4,2 C 12,9 km/h (3 Bft)
27.12.2017 12:36 5,2 C 88 % 982,4 hPa 0,0 l/m 9,4 km/h (2 Bft) O-SO 123 0 min 35 W/m 3,4 C 2,7 C 17,7 km/h (3 Bft)
27.12.2017 12:39 5,1 C 89 % 982,4 hPa 0,0 l/m 8,7 km/h (2 Bft) S-SO 164 0 min 40 W/m 3,4 C 3,1 C 19,3 km/h (3 Bft)
27.12.2017 12:42 5,1 C 89 % 982,3 hPa 0,0 l/m 8,6 km/h (2 Bft) SO 145 0 min 58 W/m 3,4 C 3,2 C 14,5 km/h (3 Bft)
27.12.2017 12:45 5,1 C 89 % 982,2 hPa 0,0 l/m 7,3 km/h (2 Bft) SO 142 0 min 54 W/m 3,4 C 4,3 C 12,9 km/h (3 Bft)
27.12.2017 12:48 5,1 C 90 % 982,2 hPa 0,0 l/m 6,9 km/h (2 Bft) SO 135 0 min 56 W/m 3,6 C 4,7 C 14,5 km/h (3 Bft)
27.12.2017 12:51 5,1 C 90 % 982,1 hPa 0,0 l/m 8,7 km/h (2 Bft) S-SO 153 0 min 69 W/m 3,6 C 3,1 C 16,1 km/h (3 Bft)
27.12.2017 12:54 5,0 C 90 % 982,2 hPa 0,0 l/m 8,1 km/h (2 Bft) SO 127 0 min 67 W/m 3,5 C 3,5 C 17,7 km/h (3 Bft)
27.12.2017 12:57 5,1 C 91 % 982,2 hPa 0,0 l/m 7,3 km/h (2 Bft) SO 143 0 min 56 W/m 3,8 C 4,3 C 17,7 km/h (3 Bft)
27.12.2017 13:00 5,1 C 91 % 982,0 hPa 0,0 l/m 6,2 km/h (2 Bft) O-SO 122 0 min 51 W/m 3,8 C 5,1 C 14,5 km/h (3 Bft)
27.12.2017 13:03 5,1 C 91 % 982,1 hPa 0,0 l/m 8,0 km/h (2 Bft) SO 146 0 min 46 W/m 3,8 C 3,7 C 14,5 km/h (3 Bft)
27.12.2017 13:06 5,1 C 91 % 982,1 hPa 0,0 l/m 8,3 km/h (2 Bft) O-SO 113 0 min 46 W/m 3,8 C 3,5 C 16,1 km/h (3 Bft)
27.12.2017 13:09 5,1 C 91 % 982,1 hPa 0,0 l/m 9,1 km/h (2 Bft) O 100 0 min 44 W/m 3,8 C 2,8 C 16,1 km/h (3 Bft)
27.12.2017 13:12 5,1 C 91 % 982,0 hPa 0,0 l/m 8,8 km/h (2 Bft) S-SO 165 0 min 58 W/m 3,8 C 3,1 C 12,9 km/h (3 Bft)
27.12.2017 13:15 5,2 C 91 % 981,9 hPa 0,0 l/m 6,6 km/h (2 Bft) S 169 0 min 76 W/m 3,9 C 5,0 C 11,3 km/h (2 Bft)
27.12.2017 13:18 5,2 C 91 % 981,8 hPa 0,0 l/m 10,0 km/h (2 Bft) O-SO 123 0 min 69 W/m 3,9 C 2,3 C 14,5 km/h (3 Bft)
27.12.2017 13:21 5,3 C 91 % 981,9 hPa 0,0 l/m 8,5 km/h (2 Bft) S 187 0 min 53 W/m 4,0 C 3,5 C 16,1 km/h (3 Bft)
27.12.2017 13:24 5,3 C 91 % 981,8 hPa 0,0 l/m 8,1 km/h (2 Bft) O-SO 107 0 min 47 W/m 4,0 C 3,8 C 14,5 km/h (3 Bft)
27.12.2017 13:27 5,3 C 91 % 981,8 hPa 0,0 l/m 10,8 km/h (2 Bft) SO 124 0 min 44 W/m 4,0 C 1,9 C 17,7 km/h (3 Bft)
27.12.2017 13:30 5,3 C 91 % 981,7 hPa 0,0 l/m 8,2 km/h (2 Bft) S-SO 154 0 min 42 W/m 4,0 C 3,8 C 14,5 km/h (3 Bft)
27.12.2017 13:34 5,4 C 91 % 981,7 hPa 0,0 l/m 8,6 km/h (2 Bft) S-SO 154 0 min 40 W/m 4,1 C 3,5 C 17,7 km/h (3 Bft)
27.12.2017 13:36 5,4 C 91 % 981,8 hPa 0,0 l/m 9,6 km/h (2 Bft) S-SO 153 0 min 37 W/m 4,1 C 2,8 C 16,1 km/h (3 Bft)
27.12.2017 13:39 5,4 C 91 % 981,7 hPa 0,0 l/m 7,1 km/h (2 Bft) S-SO 149 0 min 35 W/m 4,1 C 4,8 C 16,1 km/h (3 Bft)
27.12.2017 13:42 5,4 C 90 % 981,6 hPa 0,0 l/m 10,1 km/h (2 Bft) S 186 0 min 37 W/m 3,9 C 2,4 C 17,7 km/h (3 Bft)
27.12.2017 13:45 5,4 C 90 % 981,6 hPa 0,0 l/m 8,7 km/h (2 Bft) S-SO 149 0 min 35 W/m 3,9 C 3,5 C 16,1 km/h (3 Bft)
27.12.2017 13:48 5,5 C 90 % 981,6 hPa 0,0 l/m 8,1 km/h (2 Bft) SO 146 0 min 26 W/m 4,0 C 4,0 C 16,1 km/h (3 Bft)
27.12.2017 13:51 5,5 C 90 % 981,6 hPa 0,0 l/m 9,5 km/h (2 Bft) SO 146 0 min 19 W/m 4,0 C 3,0 C 17,7 km/h (3 Bft)
27.12.2017 13:54 5,5 C 90 % 981,6 hPa 0,0 l/m 8,3 km/h (2 Bft) SO 133 0 min 21 W/m 4,0 C 3,9 C 16,1 km/h (3 Bft)
27.12.2017 13:57 5,5 C 90 % 981,5 hPa 0,0 l/m 8,3 km/h (2 Bft) SO 125 0 min 21 W/m 4,0 C 3,9 C 16,1 km/h (3 Bft)
27.12.2017 14:00 5,5 C 90 % 981,6 hPa 0,0 l/m 9,8 km/h (2 Bft) O-SO 117 0 min 21 W/m 4,0 C 2,8 C 14,5 km/h (3 Bft)
27.12.2017 14:03 5,5 C 90 % 981,5 hPa 0,0 l/m 7,5 km/h (2 Bft) SO 132 0 min 26 W/m 4,0 C 4,5 C 12,9 km/h (3 Bft)
27.12.2017 14:06 5,5 C 90 % 981,5 hPa 0,0 l/m 7,3 km/h (2 Bft) SO 128 0 min 30 W/m 4,0 C 4,7 C 14,5 km/h (3 Bft)
27.12.2017 14:09 5,5 C 90 % 981,4 hPa 0,0 l/m 7,3 km/h (2 Bft) SO 146 0 min 32 W/m 4,0 C 4,7 C 14,5 km/h (3 Bft)
27.12.2017 14:12 5,6 C 90 % 981,4 hPa 0,0 l/m 8,4 km/h (2 Bft) S 179 0 min 33 W/m 4,1 C 3,9 C 11,3 km/h (2 Bft)
27.12.2017 14:15 5,6 C 90 % 981,4 hPa 0,0 l/m 8,2 km/h (2 Bft) S-SO 163 0 min 33 W/m 4,1 C 4,1 C 14,5 km/h (3 Bft)
27.12.2017 14:18 5,6 C 90 % 981,3 hPa 0,0 l/m 7,9 km/h (2 Bft) SO 141 0 min 32 W/m 4,1 C 4,3 C 16,1 km/h (3 Bft)
27.12.2017 14:21 5,6 C 90 % 981,4 hPa 0,0 l/m 8,9 km/h (2 Bft) S-SO 160 0 min 28 W/m 4,1 C 3,5 C 16,1 km/h (3 Bft)
27.12.2017 14:24 5,6 C 90 % 981,3 hPa 0,0 l/m 6,7 km/h (2 Bft) SO 134 0 min 28 W/m 4,1 C 5,4 C 11,3 km/h (2 Bft)
27.12.2017 14:27 5,6 C 90 % 981,3 hPa 0,0 l/m 7,0 km/h (2 Bft) O-SO 105 0 min 26 W/m 4,1 C 5,1 C 12,9 km/h (3 Bft)
27.12.2017 14:30 5,6 C 90 % 981,2 hPa 0,0 l/m 7,4 km/h (2 Bft) S-SO 163 0 min 25 W/m 4,1 C 4,7 C 12,9 km/h (3 Bft)
27.12.2017 14:33 5,6 C 90 % 981,1 hPa 0,0 l/m 6,5 km/h (2 Bft) S-SO 159 0 min 23 W/m 4,1 C 5,5 C 14,5 km/h (3 Bft)
27.12.2017 14:36 5,7 C 90 % 981,2 hPa 0,0 l/m 5,0 km/h (1 Bft) S 174 0 min 19 W/m 4,2 C 5,7 C 9,7 km/h (2 Bft)
27.12.2017 14:39 5,7 C 90 % 981,2 hPa 0,0 l/m 5,8 km/h (2 Bft) S-SO 154 0 min 18 W/m 4,2 C 5,7 C 11,3 km/h (2 Bft)
27.12.2017 14:42 5,7 C 90 % 981,1 hPa 0,0 l/m 7,2 km/h (2 Bft) O-SO 119 0 min 18 W/m 4,2 C 5,0 C 12,9 km/h (3 Bft)
27.12.2017 14:45 5,7 C 90 % 981,2 hPa 0,0 l/m 7,1 km/h (2 Bft) S-SO 150 0 min 14 W/m 4,2 C 5,1 C 12,9 km/h (3 Bft)
27.12.2017 14:48 5,7 C 90 % 981,2 hPa 0,0 l/m 6,4 km/h (2 Bft) SO 136 0 min 12 W/m 4,2 C 5,7 C 11,3 km/h (2 Bft)
27.12.2017 14:51 5,7 C 89 % 981,1 hPa 0,0 l/m 8,3 km/h (2 Bft) SO 142 0 min 12 W/m 4,0 C 4,1 C 14,5 km/h (3 Bft)
27.12.2017 14:54 5,7 C 89 % 981,1 hPa 0,0 l/m 6,2 km/h (2 Bft) S-SO 150 0 min 12 W/m 4,0 C 5,7 C 12,9 km/h (3 Bft)
27.12.2017 14:57 5,7 C 89 % 981,1 hPa 0,0 l/m 5,6 km/h (2 Bft) SO 143 0 min 11 W/m 4,0 C 5,7 C 12,9 km/h (3 Bft)
27.12.2017 15:00 5,7 C 89 % 981,2 hPa 0,0 l/m 5,0 km/h (1 Bft) S-SO 148 0 min 11 W/m 4,0 C 5,7 C 9,7 km/h (2 Bft)
27.12.2017 15:03 5,7 C 89 % 981,1 hPa 0,0 l/m 5,1 km/h (1 Bft) S-SO 160 0 min 9 W/m 4,0 C 5,7 C 9,7 km/h (2 Bft)
27.12.2017 15:06 5,7 C 89 % 981,1 hPa 0,0 l/m 5,0 km/h (1 Bft) SO 144 0 min 9 W/m 4,0 C 5,7 C 8,0 km/h (2 Bft)
27.12.2017 15:09 5,7 C 89 % 981,1 hPa 0,0 l/m 6,8 km/h (2 Bft) S-SO 152 0 min 9 W/m 4,0 C 5,4 C 14,5 km/h (3 Bft)
27.12.2017 15:12 5,7 C 89 % 981,1 hPa 0,0 l/m 6,1 km/h (2 Bft) SO 140 0 min 9 W/m 4,0 C 5,7 C 12,9 km/h (3 Bft)
27.12.2017 15:15 5,7 C 89 % 981,0 hPa 0,0 l/m 5,1 km/h (1 Bft) SO 125 0 min 9 W/m 4,0 C 5,7 C 11,3 km/h (2 Bft)
27.12.2017 15:18 5,7 C 89 % 981,1 hPa 0,0 l/m 6,2 km/h (2 Bft) O-SO 113 0 min 12 W/m 4,0 C 5,7 C 12,9 km/h (3 Bft)
27.12.2017 15:21 5,7 C 89 % 981,1 hPa 0,0 l/m 4,1 km/h (1 Bft) S-SO 158 0 min 12 W/m 4,0 C 5,7 C 9,7 km/h (2 Bft)
27.12.2017 15:24 5,7 C 89 % 981,1 hPa 0,0 l/m 4,3 km/h (1 Bft) SO 143 0 min 11 W/m 4,0 C 5,7 C 6,4 km/h (2 Bft)
27.12.2017 15:27 5,7 C 89 % 981,1 hPa 0,0 l/m 5,4 km/h (2 Bft) S-SO 155 0 min 7 W/m 4,0 C 5,7 C 12,9 km/h (3 Bft)
27.12.2017 15:30 5,7 C 89 % 981,0 hPa 0,0 l/m 6,2 km/h (2 Bft) SO 138 0 min 7 W/m 4,0 C 5,7 C 9,7 km/h (2 Bft)
27.12.2017 15:33 5,7 C 90 % 981,1 hPa 0,0 l/m 5,7 km/h (2 Bft) O-SO 120 0 min 7 W/m 4,2 C 5,7 C 9,7 km/h (2 Bft)
27.12.2017 15:36 5,7 C 90 % 981,1 hPa 0,0 l/m 4,2 km/h (1 Bft) S-SO 151 0 min 5 W/m 4,2 C 5,7 C 8,0 km/h (2 Bft)
27.12.2017 15:39 5,7 C 90 % 981,1 hPa 0,0 l/m 5,6 km/h (2 Bft) S 170 0 min 5 W/m 4,2 C 5,7 C 11,3 km/h (2 Bft)
27.12.2017 15:42 5,7 C 90 % 981,1 hPa 0,0 l/m 5,4 km/h (2 Bft) S-SO 167 0 min 5 W/m 4,2 C 5,7 C 11,3 km/h (2 Bft)
27.12.2017 15:45 5,7 C 90 % 981,1 hPa 0,2 l/m 6,7 km/h (2 Bft) S 182 0 min 5 W/m 4,2 C 5,5 C 14,5 km/h (3 Bft)
27.12.2017 15:48 5,7 C 90 % 981,0 hPa 0,0 l/m 5,0 km/h (1 Bft) S 169 0 min 0 W/m 4,2 C 5,7 C 9,7 km/h (2 Bft)
27.12.2017 15:51 5,7 C 90 % 981,1 hPa 0,0 l/m 5,1 km/h (1 Bft) S-SO 159 0 min 5 W/m 4,2 C 5,7 C 12,9 km/h (3 Bft)
27.12.2017 15:54 5,7 C 90 % 981,0 hPa 0,0 l/m 5,2 km/h (1 Bft) SO 125 0 min 5 W/m 4,2 C 5,7 C 14,5 km/h (3 Bft)
27.12.2017 15:57 5,7 C 90 % 981,1 hPa 0,0 l/m 5,5 km/h (2 Bft) SO 124 0 min 5 W/m 4,2 C 5,7 C 9,7 km/h (2 Bft)
27.12.2017 16:00 5,7 C 91 % 981,1 hPa 0,0 l/m 5,3 km/h (1 Bft) SO 141 0 min 5 W/m 4,3 C 5,7 C 11,3 km/h (2 Bft)
27.12.2017 16:03 5,6 C 91 % 981,1 hPa 0,0 l/m 5,4 km/h (2 Bft) S-SO 147 0 min 0 W/m 4,2 C 5,6 C 9,7 km/h (2 Bft)
27.12.2017 16:06 5,6 C 91 % 981,0 hPa 0,0 l/m 5,2 km/h (1 Bft) O-SO 113 0 min 0 W/m 4,2 C 5,6 C 8,0 km/h (2 Bft)
27.12.2017 16:09 5,6 C 91 % 981,0 hPa 0,0 l/m 5,5 km/h (2 Bft) S-SO 157 0 min 0 W/m 4,2 C 5,6 C 8,0 km/h (2 Bft)
27.12.2017 16:12 5,6 C 91 % 981,0 hPa 0,0 l/m 4,9 km/h (1 Bft) SO 144 0 min 0 W/m 4,2 C 5,6 C 8,0 km/h (2 Bft)
27.12.2017 16:15 5,6 C 91 % 981,0 hPa 0,0 l/m 4,6 km/h (1 Bft) S-SO 160 0 min 0 W/m 4,2 C 5,6 C 8,0 km/h (2 Bft)
27.12.2017 16:18 5,6 C 91 % 981,1 hPa 0,0 l/m 6,1 km/h (2 Bft) S-SO 150 0 min 0 W/m 4,2 C 5,6 C 12,9 km/h (3 Bft)
27.12.2017 16:21 5,5 C 91 % 981,1 hPa 0,0 l/m 5,1 km/h (1 Bft) SO 139 0 min 0 W/m 4,2 C 5,5 C 12,9 km/h (3 Bft)
27.12.2017 16:24 5,5 C 91 % 981,0 hPa 0,0 l/m 4,8 km/h (1 Bft) SO 132 0 min 0 W/m 4,2 C 5,5 C 8,0 km/h (2 Bft)
27.12.2017 16:27 5,5 C 91 % 981,0 hPa 0,0 l/m 5,1 km/h (1 Bft) S-SO 153 0 min 0 W/m 4,2 C 5,5 C 11,3 km/h (2 Bft)
27.12.2017 16:30 5,5 C 91 % 981,0 hPa 0,0 l/m 5,8 km/h (2 Bft) SO 144 0 min 0 W/m 4,2 C 5,5 C 9,7 km/h (2 Bft)
27.12.2017 16:33 5,5 C 91 % 981,0 hPa 0,0 l/m 5,8 km/h (2 Bft) SO 146 0 min 0 W/m 4,2 C 5,5 C 11,3 km/h (2 Bft)
27.12.2017 16:36 5,5 C 92 % 981,0 hPa 0,0 l/m 5,8 km/h (2 Bft) SO 140 0 min 0 W/m 4,3 C 5,5 C 14,5 km/h (3 Bft)
27.12.2017 16:39 5,5 C 92 % 981,1 hPa 0,0 l/m 5,5 km/h (2 Bft) O-SO 108 0 min 0 W/m 4,3 C 5,5 C 9,7 km/h (2 Bft)
27.12.2017 16:42 5,5 C 92 % 981,1 hPa 0,0 l/m 5,4 km/h (2 Bft) SO 134 0 min 0 W/m 4,3 C 5,5 C 11,3 km/h (2 Bft)
27.12.2017 16:45 5,4 C 92 % 981,1 hPa 0,0 l/m 5,5 km/h (2 Bft) S-SO 148 0 min 0 W/m 4,2 C 5,4 C 11,3 km/h (2 Bft)
27.12.2017 16:48 5,4 C 92 % 981,0 hPa 0,0 l/m 5,6 km/h (2 Bft) SO 142 0 min 0 W/m 4,2 C 5,4 C 12,9 km/h (3 Bft)
27.12.2017 16:51 5,4 C 92 % 981,1 hPa 0,0 l/m 5,0 km/h (1 Bft) S-SO 153 0 min 0 W/m 4,2 C 5,4 C 9,7 km/h (2 Bft)
27.12.2017 16:54 5,4 C 92 % 981,1 hPa 0,0 l/m 4,7 km/h (1 Bft) S 171 0 min 0 W/m 4,2 C 5,4 C 9,7 km/h (2 Bft)
27.12.2017 16:57 5,4 C 92 % 981,1 hPa 0,0 l/m 4,6 km/h (1 Bft) SO 144 0 min 0 W/m 4,2 C 5,4 C 8,0 km/h (2 Bft)
27.12.2017 17:00 5,4 C 92 % 981,1 hPa 0,0 l/m 5,9 km/h (2 Bft) SO 142 0 min 0 W/m 4,2 C 5,4 C 11,3 km/h (2 Bft)
27.12.2017 17:03 5,4 C 92 % 981,0 hPa 0,0 l/m 4,9 km/h (1 Bft) O-SO 113 0 min 0 W/m 4,2 C 5,4 C 8,0 km/h (2 Bft)
27.12.2017 17:06 5,4 C 92 % 981,1 hPa 0,0 l/m 4,4 km/h (1 Bft) S-SO 150 0 min 0 W/m 4,2 C 5,4 C 8,0 km/h (2 Bft)
27.12.2017 17:09 5,5 C 92 % 981,1 hPa 0,0 l/m 3,9 km/h (1 Bft) SO 132 0 min 0 W/m 4,3 C 5,5 C 6,4 km/h (2 Bft)
27.12.2017 17:12 5,5 C 92 % 981,1 hPa 0,0 l/m 5,0 km/h (1 Bft) S 173 0 min 0 W/m 4,3 C 5,5 C 9,7 km/h (2 Bft)
27.12.2017 17:15 5,4 C 92 % 981,1 hPa 0,0 l/m 4,8 km/h (1 Bft) S-SO 148 0 min 0 W/m 4,2 C 5,4 C 9,7 km/h (2 Bft)
27.12.2017 17:18 5,4 C 92 % 981,0 hPa 0,0 l/m 4,0 km/h (1 Bft) S-SO 161 0 min 0 W/m 4,2 C 5,4 C 8,0 km/h (2 Bft)
27.12.2017 17:21 5,5 C 92 % 981,0 hPa 0,0 l/m 5,6 km/h (2 Bft) S-SO 162 0 min 0 W/m 4,3 C 5,5 C 9,7 km/h (2 Bft)
27.12.2017 17:24 5,5 C 92 % 981,0 hPa 0,0 l/m 3,9 km/h (1 Bft) S-SO 150 0 min 0 W/m 4,3 C 5,5 C 6,4 km/h (2 Bft)
27.12.2017 17:27 5,5 C 92 % 981,1 hPa 0,0 l/m 5,3 km/h (1 Bft) S 170 0 min 0 W/m 4,3 C 5,5 C 9,7 km/h (2 Bft)
27.12.2017 17:30 5,5 C 92 % 981,1 hPa 0,0 l/m 5,2 km/h (1 Bft) S-SO 164 0 min 0 W/m 4,3 C 5,5 C 9,7 km/h (2 Bft)
27.12.2017 17:33 5,5 C 92 % 981,0 hPa 0,0 l/m 4,7 km/h (1 Bft) O-SO 112 0 min 0 W/m 4,3 C 5,5 C 9,7 km/h (2 Bft)
27.12.2017 17:36 5,5 C 92 % 981,1 hPa 0,0 l/m 5,3 km/h (1 Bft) S-SO 167 0 min 0 W/m 4,3 C 5,5 C 11,3 km/h (2 Bft)
27.12.2017 17:39 5,5 C 92 % 981,1 hPa 0,0 l/m 7,7 km/h (2 Bft) S 169 0 min 0 W/m 4,3 C 4,4 C 12,9 km/h (3 Bft)
27.12.2017 17:42 5,6 C 92 % 981,1 hPa 0,0 l/m 6,1 km/h (2 Bft) S-SO 153 0 min 0 W/m 4,4 C 5,6 C 14,5 km/h (3 Bft)
27.12.2017 17:45 5,6 C 92 % 981,0 hPa 0,0 l/m 8,0 km/h (2 Bft) O-SO 115 0 min 0 W/m 4,4 C 4,2 C 14,5 km/h (3 Bft)
27.12.2017 17:48 5,6 C 92 % 981,1 hPa 0,0 l/m 8,8 km/h (2 Bft) S 175 0 min 0 W/m 4,4 C 3,6 C 16,1 km/h (3 Bft)
27.12.2017 17:51 5,6 C 92 % 981,1 hPa 0,0 l/m 7,0 km/h (2 Bft) S-SO 165 0 min 0 W/m 4,4 C 5,1 C 11,3 km/h (2 Bft)
27.12.2017 17:54 5,6 C 92 % 981,1 hPa 0,0 l/m 9,5 km/h (2 Bft) S-SO 166 0 min 0 W/m 4,4 C 3,1 C 14,5 km/h (3 Bft)
27.12.2017 17:57 5,6 C 92 % 981,2 hPa 0,0 l/m 10,0 km/h (2 Bft) S 173 0 min 0 W/m 4,4 C 2,7 C 16,1 km/h (3 Bft)
27.12.2017 18:00 5,7 C 91 % 981,2 hPa 0,0 l/m 9,6 km/h (2 Bft) SW 219 0 min 0 W/m 4,3 C 3,1 C 14,5 km/h (3 Bft)
27.12.2017 18:03 5,7 C 91 % 981,2 hPa 0,0 l/m 10,5 km/h (2 Bft) S-SW 194 0 min 0 W/m 4,3 C 2,5 C 17,7 km/h (3 Bft)
27.12.2017 18:06 5,7 C 91 % 981,2 hPa 0,0 l/m 14,6 km/h (3 Bft) S-SW 208 0 min 0 W/m 4,3 C 0,1 C 24,1 km/h (4 Bft)
27.12.2017 18:09 5,8 C 91 % 981,3 hPa 0,0 l/m 13,0 km/h (3 Bft) S 188 0 min 0 W/m 4,4 C 1,1 C 27,4 km/h (5 Bft)
27.12.2017 18:12 5,8 C 92 % 981,3 hPa 0,0 l/m 11,1 km/h (2 Bft) S 187 0 min 0 W/m 4,6 C 2,2 C 19,3 km/h (3 Bft)
27.12.2017 18:15 5,8 C 92 % 981,3 hPa 0,0 l/m 11,0 km/h (2 Bft) S-SW 196 0 min 0 W/m 4,6 C 2,3 C 17,7 km/h (3 Bft)
27.12.2017 18:18 5,8 C 92 % 981,3 hPa 0,0 l/m 12,8 km/h (3 Bft) SW 219 0 min 0 W/m 4,6 C 1,2 C 24,1 km/h (4 Bft)
27.12.2017 18:21 5,8 C 92 % 981,4 hPa 0,0 l/m 10,6 km/h (2 Bft) SW 217 0 min 0 W/m 4,6 C 2,6 C 20,9 km/h (4 Bft)
27.12.2017 18:24 5,8 C 92 % 981,4 hPa 0,0 l/m 9,0 km/h (2 Bft) SW 229 0 min 0 W/m 4,6 C 3,7 C 16,1 km/h (3 Bft)
27.12.2017 18:27 5,8 C 92 % 981,4 hPa 0,0 l/m 12,4 km/h (2 Bft) S 169 0 min 0 W/m 4,6 C 1,4 C 19,3 km/h (3 Bft)
27.12.2017 18:30 5,8 C 92 % 981,4 hPa 0,0 l/m 11,4 km/h (2 Bft) S-SW 204 0 min 0 W/m 4,6 C 2,0 C 20,9 km/h (4 Bft)
27.12.2017 18:33 5,8 C 92 % 981,5 hPa 0,0 l/m 12,1 km/h (2 Bft) S-SO 162 0 min 0 W/m 4,6 C 1,6 C 27,4 km/h (5 Bft)
27.12.2017 18:36 5,7 C 92 % 981,4 hPa 0,0 l/m 12,0 km/h (2 Bft) S-SW 206 0 min 0 W/m 4,5 C 1,6 C 17,7 km/h (3 Bft)
27.12.2017 18:39 5,7 C 92 % 981,4 hPa 0,0 l/m 13,2 km/h (3 Bft) S 170 0 min 0 W/m 4,5 C 0,9 C 20,9 km/h (4 Bft)
27.12.2017 18:42 5,7 C 92 % 981,5 hPa 0,0 l/m 9,7 km/h (2 Bft) SW 216 0 min 0 W/m 4,5 C 3,1 C 16,1 km/h (3 Bft)
27.12.2017 18:45 5,7 C 92 % 981,5 hPa 0,0 l/m 8,6 km/h (2 Bft) S-SW 206 0 min 0 W/m 4,5 C 3,9 C 17,7 km/h (3 Bft)
27.12.2017 18:48 5,7 C 92 % 981,5 hPa 0,0 l/m 8,0 km/h (2 Bft) S-SW 198 0 min 0 W/m 4,5 C 4,3 C 12,9 km/h (3 Bft)
27.12.2017 18:51 5,7 C 92 % 981,5 hPa 0,0 l/m 10,0 km/h (2 Bft) SW 219 0 min 0 W/m 4,5 C 2,8 C 17,7 km/h (3 Bft)
27.12.2017 18:54 5,7 C 92 % 981,5 hPa 0,0 l/m 6,5 km/h (2 Bft) S 182 0 min 0 W/m 4,5 C 5,6 C 14,5 km/h (3 Bft)
27.12.2017 18:57 5,7 C 92 % 981,5 hPa 0,0 l/m 8,2 km/h (2 Bft) S 190 0 min 0 W/m 4,5 C 4,2 C 12,9 km/h (3 Bft)
27.12.2017 19:00 5,7 C 92 % 981,6 hPa 0,0 l/m 7,6 km/h (2 Bft) S 178 0 min 0 W/m 4,5 C 4,7 C 14,5 km/h (3 Bft)
27.12.2017 19:03 5,7 C 92 % 981,6 hPa 0,0 l/m 6,2 km/h (2 Bft) S 181 0 min 0 W/m 4,5 C 5,7 C 9,7 km/h (2 Bft)
27.12.2017 19:06 5,6 C 92 % 981,6 hPa 0,0 l/m 8,7 km/h (2 Bft) S 183 0 min 0 W/m 4,4 C 3,7 C 14,5 km/h (3 Bft)
27.12.2017 19:09 5,6 C 92 % 981,6 hPa 0,0 l/m 8,3 km/h (2 Bft) S-SO 160 0 min 0 W/m 4,4 C 4,0 C 14,5 km/h (3 Bft)
27.12.2017 19:12 5,6 C 93 % 981,6 hPa 0,0 l/m 9,0 km/h (2 Bft) S-SO 168 0 min 0 W/m 4,6 C 3,5 C 16,1 km/h (3 Bft)
27.12.2017 19:15 5,6 C 93 % 981,6 hPa 0,0 l/m 7,1 km/h (2 Bft) S 184 0 min 0 W/m 4,6 C 5,0 C 11,3 km/h (2 Bft)
27.12.2017 19:18 5,6 C 93 % 981,6 hPa 0,0 l/m 9,1 km/h (2 Bft) S 182 0 min 0 W/m 4,6 C 3,4 C 14,5 km/h (3 Bft)
27.12.2017 19:21 5,6 C 93 % 981,7 hPa 0,0 l/m 7,1 km/h (2 Bft) S-SW 197 0 min 0 W/m 4,6 C 5,0 C 12,9 km/h (3 Bft)
27.12.2017 19:24 5,6 C 93 % 981,7 hPa 0,0 l/m 10,2 km/h (2 Bft) S 183 0 min 0 W/m 4,6 C 2,6 C 20,9 km/h (4 Bft)
27.12.2017 19:27 5,6 C 93 % 981,7 hPa 0,0 l/m 7,8 km/h (2 Bft) S 176 0 min 0 W/m 4,6 C 4,4 C 14,5 km/h (3 Bft)
27.12.2017 19:30 5,6 C 93 % 981,7 hPa 0,0 l/m 10,7 km/h (2 Bft) S 171 0 min 0 W/m 4,6 C 2,3 C 16,1 km/h (3 Bft)
27.12.2017 19:33 5,6 C 93 % 981,7 hPa 0,0 l/m 8,7 km/h (2 Bft) S 188 0 min 0 W/m 4,6 C 3,7 C 17,7 km/h (3 Bft)
27.12.2017 19:36 5,6 C 93 % 981,7 hPa 0,0 l/m 9,8 km/h (2 Bft) S 176 0 min 0 W/m 4,6 C 2,9 C 16,1 km/h (3 Bft)
27.12.2017 19:39 5,6 C 93 % 981,7 hPa 0,0 l/m 7,7 km/h (2 Bft) S-SW 211 0 min 0 W/m 4,6 C 4,5 C 14,5 km/h (3 Bft)
27.12.2017 19:42 5,5 C 94 % 981,7 hPa 0,0 l/m 9,8 km/h (2 Bft) S-SW 196 0 min 0 W/m 4,6 C 2,8 C 16,1 km/h (3 Bft)
27.12.2017 19:45 5,5 C 94 % 981,7 hPa 0,0 l/m 7,2 km/h (2 Bft) S 182 0 min 0 W/m 4,6 C 4,8 C 12,9 km/h (3 Bft)
27.12.2017 19:48 5,5 C 94 % 981,7 hPa 0,0 l/m 7,5 km/h (2 Bft) S 177 0 min 0 W/m 4,6 C 4,5 C 11,3 km/h (2 Bft)
27.12.2017 19:51 5,5 C 94 % 981,8 hPa 0,0 l/m 7,3 km/h (2 Bft) S 174 0 min 0 W/m 4,6 C 4,7 C 11,3 km/h (2 Bft)
27.12.2017 19:54 5,5 C 94 % 981,9 hPa 0,0 l/m 8,5 km/h (2 Bft) S 175 0 min 0 W/m 4,6 C 3,7 C 16,1 km/h (3 Bft)
27.12.2017 19:57 5,5 C 94 % 981,8 hPa 0,0 l/m 6,7 km/h (2 Bft) S-SW 206 0 min 0 W/m 4,6 C 5,3 C 12,9 km/h (3 Bft)
27.12.2017 20:00 5,5 C 94 % 981,9 hPa 0,0 l/m 8,8 km/h (2 Bft) S 182 0 min 0 W/m 4,6 C 3,5 C 14,5 km/h (3 Bft)
27.12.2017 20:03 5,5 C 94 % 981,9 hPa 0,0 l/m 7,5 km/h (2 Bft) S 188 0 min 0 W/m 4,6 C 4,5 C 14,5 km/h (3 Bft)
27.12.2017 20:06 5,5 C 94 % 981,9 hPa 0,0 l/m 7,5 km/h (2 Bft) S-SW 194 0 min 0 W/m 4,6 C 4,5 C 12,9 km/h (3 Bft)
27.12.2017 20:09 5,5 C 94 % 981,9 hPa 0,0 l/m 7,1 km/h (2 Bft) S 178 0 min 0 W/m 4,6 C 4,9 C 14,5 km/h (3 Bft)
27.12.2017 20:12 5,4 C 94 % 981,8 hPa 0,0 l/m 8,1 km/h (2 Bft) S 178 0 min 0 W/m 4,5 C 3,9 C 14,5 km/h (3 Bft)
27.12.2017 20:15 5,4 C 94 % 981,8 hPa 0,0 l/m 6,3 km/h (2 Bft) S-SW 196 0 min 0 W/m 4,5 C 5,4 C 11,3 km/h (2 Bft)
27.12.2017 20:18 5,4 C 94 % 981,8 hPa 0,0 l/m 7,4 km/h (2 Bft) S 190 0 min 0 W/m 4,5 C 4,5 C 12,9 km/h (3 Bft)
27.12.2017 20:21 5,4 C 94 % 981,8 hPa 0,0 l/m 7,5 km/h (2 Bft) S 189 0 min 0 W/m 4,5 C 4,4 C 16,1 km/h (3 Bft)
27.12.2017 20:24 5,3 C 94 % 981,8 hPa 0,0 l/m 8,0 km/h (2 Bft) S 169 0 min 0 W/m 4,4 C 3,9 C 16,1 km/h (3 Bft)
27.12.2017 20:27 5,3 C 94 % 981,8 hPa 0,0 l/m 7,8 km/h (2 Bft) S 175 0 min 0 W/m 4,4 C 4,1 C 14,5 km/h (3 Bft)
27.12.2017 20:30 5,3 C 94 % 981,8 hPa 0,0 l/m 8,0 km/h (2 Bft) S-SO 154 0 min 0 W/m 4,4 C 3,9 C 14,5 km/h (3 Bft)
27.12.2017 20:33 5,3 C 94 % 981,9 hPa 0,0 l/m 9,8 km/h (2 Bft) S-SO 158 0 min 0 W/m 4,4 C 2,5 C 16,1 km/h (3 Bft)
27.12.2017 20:36 5,3 C 94 % 981,8 hPa 0,0 l/m 7,7 km/h (2 Bft) S-SW 202 0 min 0 W/m 4,4 C 4,2 C 14,5 km/h (3 Bft)
27.12.2017 20:39 5,3 C 94 % 981,8 hPa 0,0 l/m 8,1 km/h (2 Bft) S-SW 212 0 min 0 W/m 4,4 C 3,8 C 14,5 km/h (3 Bft)
27.12.2017 20:42 5,3 C 94 % 981,8 hPa 0,0 l/m 7,4 km/h (2 Bft) S 186 0 min 0 W/m 4,4 C 4,4 C 11,3 km/h (2 Bft)
27.12.2017 20:45 5,3 C 94 % 981,8 hPa 0,0 l/m 6,8 km/h (2 Bft) S-SW 198 0 min 0 W/m 4,4 C 5,0 C 14,5 km/h (3 Bft)
27.12.2017 20:48 5,2 C 94 % 981,9 hPa 0,0 l/m 7,6 km/h (2 Bft) S 170 0 min 0 W/m 4,3 C 4,1 C 12,9 km/h (3 Bft)
27.12.2017 20:51 5,2 C 94 % 981,9 hPa 0,0 l/m 8,5 km/h (2 Bft) S 175 0 min 0 W/m 4,3 C 3,4 C 16,1 km/h (3 Bft)
27.12.2017 20:54 5,2 C 95 % 981,9 hPa 0,0 l/m 7,3 km/h (2 Bft) S 169 0 min 0 W/m 4,5 C 4,4 C 19,3 km/h (3 Bft)
27.12.2017 20:57 5,2 C 95 % 981,9 hPa 0,0 l/m 8,7 km/h (2 Bft) S 189 0 min 0 W/m 4,5 C 3,3 C 16,1 km/h (3 Bft)
27.12.2017 21:00 5,2 C 95 % 981,9 hPa 0,0 l/m 8,4 km/h (2 Bft) S-SW 196 0 min 0 W/m 4,5 C 3,5 C 16,1 km/h (3 Bft)
27.12.2017 21:03 5,2 C 95 % 981,9 hPa 0,0 l/m 8,8 km/h (2 Bft) SW 215 0 min 0 W/m 4,5 C 3,2 C 17,7 km/h (3 Bft)
27.12.2017 21:06 5,2 C 95 % 982,0 hPa 0,0 l/m 8,3 km/h (2 Bft) S 184 0 min 0 W/m 4,5 C 3,6 C 12,9 km/h (3 Bft)
27.12.2017 21:09 5,2 C 94 % 982,0 hPa 0,0 l/m 8,0 km/h (2 Bft) S-SO 157 0 min 0 W/m 4,3 C 3,8 C 16,1 km/h (3 Bft)
27.12.2017 21:12 5,1 C 95 % 982,0 hPa 0,0 l/m 7,9 km/h (2 Bft) S 169 0 min 0 W/m 4,4 C 3,8 C 16,1 km/h (3 Bft)
27.12.2017 21:15 5,1 C 94 % 982,0 hPa 0,0 l/m 8,0 km/h (2 Bft) S 172 0 min 0 W/m 4,2 C 3,7 C 14,5 km/h (3 Bft)
27.12.2017 21:18 5,1 C 94 % 982,0 hPa 0,0 l/m 7,8 km/h (2 Bft) S 182 0 min 0 W/m 4,2 C 3,9 C 16,1 km/h (3 Bft)
27.12.2017 21:21 4,9 C 94 % 982,0 hPa 0,0 l/m 7,9 km/h (2 Bft) S 174 0 min 0 W/m 4,0 C 3,6 C 11,3 km/h (2 Bft)
27.12.2017 21:24 4,9 C 94 % 982,0 hPa 0,0 l/m 8,2 km/h (2 Bft) S 178 0 min 0 W/m 4,0 C 3,3 C 14,5 km/h (3 Bft)
27.12.2017 21:27 4,8 C 94 % 982,0 hPa 0,0 l/m 8,2 km/h (2 Bft) S-SO 157 0 min 0 W/m 3,9 C 3,2 C 11,3 km/h (2 Bft)
27.12.2017 21:30 4,8 C 94 % 982,0 hPa 0,0 l/m 8,4 km/h (2 Bft) S 171 0 min 0 W/m 3,9 C 3,1 C 11,3 km/h (2 Bft)
27.12.2017 21:33 4,7 C 94 % 982,0 hPa 0,0 l/m 7,6 km/h (2 Bft) S 178 0 min 0 W/m 3,8 C 3,6 C 11,3 km/h (2 Bft)
27.12.2017 21:36 4,7 C 94 % 981,9 hPa 0,2 l/m 8,5 km/h (2 Bft) S 169 0 min 0 W/m 3,8 C 2,9 C 11,3 km/h (2 Bft)
27.12.2017 21:39 4,7 C 94 % 982,0 hPa 0,0 l/m 8,1 km/h (2 Bft) S-SO 167 0 min 0 W/m 3,8 C 3,2 C 11,3 km/h (2 Bft)
27.12.2017 21:42 4,6 C 94 % 982,0 hPa 0,0 l/m 8,2 km/h (2 Bft) S 171 0 min 0 W/m 3,7 C 3,0 C 12,9 km/h (3 Bft)
27.12.2017 21:45 4,6 C 94 % 982,0 hPa 0,0 l/m 8,4 km/h (2 Bft) S-SO 168 0 min 0 W/m 3,7 C 2,9 C 16,1 km/h (3 Bft)
27.12.2017 21:48 4,6 C 94 % 982,0 hPa 0,0 l/m 10,7 km/h (2 Bft) S-SO 167 0 min 0 W/m 3,7 C 1,1 C 14,5 km/h (3 Bft)
27.12.2017 21:51 4,6 C 95 % 982,0 hPa 0,0 l/m 7,6 km/h (2 Bft) S 178 0 min 0 W/m 3,9 C 3,5 C 14,5 km/h (3 Bft)
27.12.2017 21:54 4,6 C 95 % 982,1 hPa 0,0 l/m 9,0 km/h (2 Bft) S 171 0 min 0 W/m 3,9 C 2,4 C 12,9 km/h (3 Bft)
27.12.2017 21:57 4,6 C 95 % 982,0 hPa 0,0 l/m 8,1 km/h (2 Bft) S-SO 167 0 min 0 W/m 3,9 C 3,1 C 14,5 km/h (3 Bft)
27.12.2017 22:00 4,5 C 95 % 982,0 hPa 0,0 l/m 8,7 km/h (2 Bft) S 189 0 min 0 W/m 3,8 C 2,5 C 12,9 km/h (3 Bft)
27.12.2017 22:03 4,5 C 95 % 982,0 hPa 0,0 l/m 8,9 km/h (2 Bft) S 188 0 min 0 W/m 3,8 C 2,3 C 14,5 km/h (3 Bft)
27.12.2017 22:06 4,5 C 95 % 982,1 hPa 0,0 l/m 9,6 km/h (2 Bft) S 182 0 min 0 W/m 3,8 C 1,8 C 14,5 km/h (3 Bft)
27.12.2017 22:09 4,4 C 95 % 982,1 hPa 0,0 l/m 9,3 km/h (2 Bft) S 184 0 min 0 W/m 3,7 C 1,9 C 14,5 km/h (3 Bft)
27.12.2017 22:12 4,4 C 95 % 982,1 hPa 0,0 l/m 9,5 km/h (2 Bft) S-SO 165 0 min 0 W/m 3,7 C 1,8 C 14,5 km/h (3 Bft)
27.12.2017 22:15 4,4 C 94 % 982,1 hPa 0,0 l/m 9,2 km/h (2 Bft) S 182 0 min 0 W/m 3,5 C 2,0 C 14,5 km/h (3 Bft)
27.12.2017 22:18 4,4 C 95 % 982,0 hPa 0,0 l/m 8,8 km/h (2 Bft) S 173 0 min 0 W/m 3,7 C 2,3 C 12,9 km/h (3 Bft)
27.12.2017 22:21 4,4 C 95 % 982,1 hPa 0,0 l/m 8,5 km/h (2 Bft) S 173 0 min 0 W/m 3,7 C 2,6 C 12,9 km/h (3 Bft)
27.12.2017 22:24 4,4 C 95 % 982,1 hPa 0,0 l/m 10,0 km/h (2 Bft) S-SO 167 0 min 0 W/m 3,7 C 1,4 C 16,1 km/h (3 Bft)
27.12.2017 22:27 4,4 C 95 % 982,1 hPa 0,0 l/m 9,7 km/h (2 Bft) S-SO 165 0 min 0 W/m 3,7 C 1,6 C 14,5 km/h (3 Bft)
27.12.2017 22:30 4,5 C 95 % 982,1 hPa 0,0 l/m 10,0 km/h (2 Bft) S 171 0 min 0 W/m 3,8 C 1,5 C 16,1 km/h (3 Bft)
27.12.2017 22:33 4,5 C 95 % 982,2 hPa 0,0 l/m 9,7 km/h (2 Bft) S 169 0 min 0 W/m 3,8 C 1,7 C 16,1 km/h (3 Bft)
27.12.2017 22:36 4,5 C 95 % 982,2 hPa 0,0 l/m 9,0 km/h (2 Bft) S-SW 194 0 min 0 W/m 3,8 C 2,3 C 17,7 km/h (3 Bft)
27.12.2017 22:39 4,5 C 95 % 982,2 hPa 0,0 l/m 8,3 km/h (2 Bft) S 169 0 min 0 W/m 3,8 C 2,8 C 12,9 km/h (3 Bft)
27.12.2017 22:42 4,5 C 95 % 982,3 hPa 0,0 l/m 8,4 km/h (2 Bft) S-SO 168 0 min 0 W/m 3,8 C 2,7 C 12,9 km/h (3 Bft)
27.12.2017 22:45 4,5 C 95 % 982,3 hPa 0,0 l/m 8,6 km/h (2 Bft) S-SO 165 0 min 0 W/m 3,8 C 2,6 C 12,9 km/h (3 Bft)
27.12.2017 22:48 4,5 C 95 % 982,3 hPa 0,0 l/m 8,3 km/h (2 Bft) S 185 0 min 0 W/m 3,8 C 2,8 C 12,9 km/h (3 Bft)
27.12.2017 22:51 4,4 C 95 % 982,3 hPa 0,0 l/m 9,5 km/h (2 Bft) S 177 0 min 0 W/m 3,7 C 1,8 C 12,9 km/h (3 Bft)
27.12.2017 22:54 4,4 C 95 % 982,3 hPa 0,0 l/m 8,8 km/h (2 Bft) S-SO 165 0 min 0 W/m 3,7 C 2,3 C 12,9 km/h (3 Bft)
27.12.2017 22:57 4,4 C 95 % 982,2 hPa 0,0 l/m 7,9 km/h (2 Bft) S 184 0 min 0 W/m 3,7 C 3,1 C 12,9 km/h (3 Bft)
27.12.2017 23:00 4,4 C 95 % 982,3 hPa 0,0 l/m 7,8 km/h (2 Bft) S-SO 167 0 min 0 W/m 3,7 C 3,1 C 11,3 km/h (2 Bft)
27.12.2017 23:03 4,3 C 95 % 982,4 hPa 0,0 l/m 8,1 km/h (2 Bft) S 176 0 min 0 W/m 3,6 C 2,8 C 11,3 km/h (2 Bft)
27.12.2017 23:06 4,3 C 95 % 982,4 hPa 0,0 l/m 8,0 km/h (2 Bft) S-SW 211 0 min 0 W/m 3,6 C 2,9 C 11,3 km/h (2 Bft)
27.12.2017 23:09 4,3 C 95 % 982,4 hPa 0,0 l/m 7,7 km/h (2 Bft) S 178 0 min 0 W/m 3,6 C 3,1 C 14,5 km/h (3 Bft)
27.12.2017 23:12 4,3 C 95 % 982,5 hPa 0,0 l/m 8,6 km/h (2 Bft) S 174 0 min 0 W/m 3,6 C 2,4 C 12,9 km/h (3 Bft)
27.12.2017 23:15 4,3 C 95 % 982,5 hPa 0,0 l/m 8,9 km/h (2 Bft) S-SO 156 0 min 0 W/m 3,6 C 2,1 C 14,5 km/h (3 Bft)
27.12.2017 23:18 4,3 C 95 % 982,4 hPa 0,0 l/m 9,2 km/h (2 Bft) S 169 0 min 0 W/m 3,6 C 1,9 C 16,1 km/h (3 Bft)
27.12.2017 23:21 4,2 C 95 % 982,5 hPa 0,0 l/m 7,9 km/h (2 Bft) S 175 0 min 0 W/m 3,5 C 2,8 C 12,9 km/h (3 Bft)
27.12.2017 23:24 4,2 C 95 % 982,4 hPa 0,0 l/m 7,4 km/h (2 Bft) S-SO 165 0 min 0 W/m 3,5 C 3,3 C 11,3 km/h (2 Bft)
27.12.2017 23:27 4,2 C 95 % 982,4 hPa 0,0 l/m 7,3 km/h (2 Bft) S 169 0 min 0 W/m 3,5 C 3,4 C 11,3 km/h (2 Bft)
27.12.2017 23:30 4,2 C 95 % 982,5 hPa 0,0 l/m 8,3 km/h (2 Bft) S 171 0 min 0 W/m 3,5 C 2,5 C 12,9 km/h (3 Bft)
27.12.2017 23:33 4,1 C 95 % 982,5 hPa 0,0 l/m 8,9 km/h (2 Bft) S 182 0 min 0 W/m 3,4 C 1,9 C 16,1 km/h (3 Bft)
27.12.2017 23:36 4,1 C 95 % 982,5 hPa 0,0 l/m 8,7 km/h (2 Bft) S 173 0 min 0 W/m 3,4 C 2,1 C 14,5 km/h (3 Bft)
27.12.2017 23:39 4,1 C 95 % 982,6 hPa 0,0 l/m 9,0 km/h (2 Bft) S 178 0 min 0 W/m 3,4 C 1,8 C 12,9 km/h (3 Bft)
27.12.2017 23:42 4,1 C 95 % 982,6 hPa 0,0 l/m 9,0 km/h (2 Bft) S-SO 167 0 min 0 W/m 3,4 C 1,8 C 14,5 km/h (3 Bft)
27.12.2017 23:45 4,1 C 95 % 982,6 hPa 0,0 l/m 8,3 km/h (2 Bft) S 172 0 min 0 W/m 3,4 C 2,4 C 12,9 km/h (3 Bft)
27.12.2017 23:48 4,1 C 95 % 982,6 hPa 0,0 l/m 7,4 km/h (2 Bft) S 184 0 min 0 W/m 3,4 C 3,2 C 12,9 km/h (3 Bft)
27.12.2017 23:51 4,0 C 95 % 982,6 hPa 0,0 l/m 6,9 km/h (2 Bft) S 187 0 min 0 W/m 3,3 C 3,5 C 9,7 km/h (2 Bft)
27.12.2017 23:54 3,9 C 95 % 982,6 hPa 0,0 l/m 7,3 km/h (2 Bft) S 175 0 min 0 W/m 3,2 C 3,1 C 11,3 km/h (2 Bft)
27.12.2017 23:57 3,9 C 95 % 982,5 hPa 0,0 l/m 6,5 km/h (2 Bft) S-SO 165 0 min 0 W/m 3,2 C 3,8 C 9,7 km/h (2 Bft)
_ Min-Zeit 00:54 11:06 15:15 - 17:09 - - - - 00:42 01:36 15:24
Minimum _ 3,5 C 87 % 981,0 hPa - 3,9 km/h (1 Bft) - - - - 2,1 C -0,9 C 6,4 km/h (2 Bft)
_ Max-Zeit 15:27 20:54 00:00 08:09 18:06 - - 00:00 11:45 19:42 14:48 07:42
Maximum _ 5,8 C 95 % 992,7 hPa 0,2 l/m 14,6 km/h
S-SW (3 Bft)
- - 0 min 88 W/m 4,6 C 5,7 C 29,0 km/h
S-SO (5 Bft)
Durchschnitt _ 4,7 C 91 % 984,6 hPa #0,6 l/m 8,5 km/h (2 Bft) S - #0 min. 34 W/m 3,3 C 2,8 C 15,4 km/h (3 Bft)
2017 Cux-Wetter.de -Die Nutzung der Wetterdaten nur mit ausdrcklicher Genehmigung